Darstellungsparameter: Aktuell verwendete Einstellungen:
Skalierung der Graphiken ... ?
xyx+y,   Skalierungsfaktor:      Skalierung: Modus: x, Faktor: 1
Darstellungszeitraum ... ?
Vom - - bis: - -   Zeitraum: 14.06.2004 - 27.06.2004
Min/Max/Avg-Anzeige ... ?
Zeige MMA aktuell
Zeige MMA Monat
Zeige MMA alles
Zeige --A aktuell
Zeige --A Monat
Zeige --A alles
Keine MMA-Anzeige
MMA:
Keine MMA-Graphiken
MMA-Basis: 14.06.2004 - 27.06.2004
Quicknavigation für Darstellung... ?
Tage:      1T, 2T, 3T, 5T -1T -2T -3T -5T +1T +2T +3T +5T
Wochen: 1W, 2W, 3W -1W -2W -3W +1W +2W +3W
Monate: 1M, 3M, 6M -1M -3M -6M +1M +3M +6M
Jahre:    1J, 3J, 5J, 10J -1J -3J -5J -10J +1J +3J +5J +10J
Nutze für die Darstellung ... ?
Originaldaten oder Mittelwerte auf ...
Stundenbasis Tagesbasis Wochenbasis
Monatsbasis Jahresbasis      Datenbasis: Original-Daten
Darstellen als:
Statistik (Auto) Statistik J:M      Darstellung:
Zur Graphik,    zurück zur Übersicht aller Sensoren.
 
Tabellarische Datenbersicht: ?
 
Sensor: Nr:Datum:Temp:Abs-Feuchte:Windchill:Wind:
Aussen-T/F 1 14-06-2004 00:00:01 12.6 C 8.52 g/m*3 12.6 C 0 km/h
2 14-06-2004 00:12:01 12.4 C 8.52 g/m*3 12.4 C 0 km/h
3 14-06-2004 00:24:01 12 C 8.42 g/m*3 12 C 0 km/h
4 14-06-2004 00:36:01 12 C 8.63 g/m*3 12 C 0 km/h
5 14-06-2004 00:48:01 11.6 C 8.42 g/m*3 11.6 C 0 km/h
6 14-06-2004 01:00:01 11.5 C 8.47 g/m*3 11.5 C 0 km/h
7 14-06-2004 01:12:01 11.5 C 8.47 g/m*3 11.5 C 0 km/h
8 14-06-2004 01:24:01 11.3 C 8.47 g/m*3 11.3 C 0 km/h
9 14-06-2004 01:36:01 11.1 C 8.36 g/m*3 11.1 C 0 km/h
10 14-06-2004 01:48:01 11 C 8.51 g/m*3 11 C 0 km/h
11 14-06-2004 02:00:01 11 C 8.51 g/m*3 11 C 0 km/h
12 14-06-2004 02:12:01 10.8 C 8.4 g/m*3 10.8 C 0 km/h
13 14-06-2004 02:24:01 10.7 C 8.45 g/m*3 10.7 C 0 km/h
14 14-06-2004 02:36:01 10.4 C 8.38 g/m*3 10.4 C 0 km/h
15 14-06-2004 02:48:01 10.4 C 8.38 g/m*3 10.4 C 0 km/h
16 14-06-2004 03:00:01 10.2 C 8.28 g/m*3 10.2 C 0 km/h
17 14-06-2004 03:12:02 10.1 C 8.32 g/m*3 10.1 C 0 km/h
18 14-06-2004 03:24:02 9.9 C 8.31 g/m*3 9.9 C 0 km/h
19 14-06-2004 03:36:02 9.7 C 8.2 g/m*3 9.7 C 0 km/h
20 14-06-2004 03:48:02 9.5 C 8.19 g/m*3 9.5 C 0 km/h
21 14-06-2004 04:00:02 9.5 C 8.28 g/m*3 9.5 C 0 km/h
22 14-06-2004 04:12:02 9.4 C 8.23 g/m*3 9.4 C 0 km/h
23 14-06-2004 04:24:02 9.2 C 8.13 g/m*3 9.2 C 0 km/h
24 14-06-2004 04:36:02 9.3 C 8.18 g/m*3 9.3 C 0 km/h
25 14-06-2004 04:48:02 9.4 C 8.23 g/m*3 9.4 C 0 km/h
Sensor: Nr:Datum:Temp:Abs-Feuchte:Windchill:Wind:
Aussen-T/F 26 14-06-2004 05:00:02 9.4 C 8.14 g/m*3 9.4 C 0 km/h
27 14-06-2004 05:12:02 9.3 C 8.09 g/m*3 9.3 C 0 km/h
28 14-06-2004 05:24:02 9.3 C 8 g/m*3 9.3 C 0 km/h
29 14-06-2004 05:36:02 9.5 C 8.1 g/m*3 9.5 C 0 km/h
30 14-06-2004 05:48:02 9.5 C 8.1 g/m*3 9.5 C 0 km/h
31 14-06-2004 06:00:02 9.7 C 8.2 g/m*3 9.7 C 0 km/h
32 14-06-2004 06:12:02 9.9 C 8.22 g/m*3 9.9 C 0 km/h
33 14-06-2004 06:24:02 9.9 C 8.22 g/m*3 9.9 C 0 km/h
34 14-06-2004 06:36:02 10 C 8.17 g/m*3 10 C 0 km/h
35 14-06-2004 06:48:02 9.9 C 8.22 g/m*3 9.9 C 0 km/h
36 14-06-2004 07:00:02 10.3 C 8.24 g/m*3 10.3 C 0 km/h
37 14-06-2004 07:12:02 10.6 C 8.3 g/m*3 10.6 C 0 km/h
38 14-06-2004 07:24:02 11.1 C 8.36 g/m*3 11.1 C 0 km/h
39 14-06-2004 07:36:02 11.4 C 8.31 g/m*3 11.4 C 0 km/h
40 14-06-2004 07:48:03 11.2 C 8.21 g/m*3 11.2 C 0 km/h
41 14-06-2004 08:00:03 11.4 C 8.31 g/m*3 11.4 C 0 km/h
42 14-06-2004 08:12:03 11.3 C 8.36 g/m*3 11.3 C 0 km/h
43 14-06-2004 08:24:03 11.6 C 8.42 g/m*3 11.6 C 0 km/h
44 14-06-2004 08:36:03 11.7 C 8.37 g/m*3 11.7 C 0 km/h
45 14-06-2004 08:48:03 11.2 C 8.21 g/m*3 11.2 C 0 km/h
46 14-06-2004 09:00:03 11.7 C 8.68 g/m*3 11.7 C 0 km/h
47 14-06-2004 09:12:03 12.2 C 8.63 g/m*3 12.2 C 0 km/h
48 14-06-2004 09:24:03 12.7 C 8.68 g/m*3 12.7 C 0 km/h
49 14-06-2004 09:36:04 13 C 8.39 g/m*3 13 C 0 km/h
50 14-06-2004 09:48:04 13.5 C 8.54 g/m*3 13.5 C 0 km/h
Sensor: Nr:Datum:Temp:Abs-Feuchte:Windchill:Wind:
Aussen-T/F 51 14-06-2004 10:00:04 14.8 C 8.87 g/m*3 14.8 C 0 km/h
52 14-06-2004 10:12:04 15.5 C 8.86 g/m*3 15.5 C 0 km/h
53 14-06-2004 10:24:04 16.4 C 8.79 g/m*3 16.4 C 0 km/h
54 14-06-2004 10:36:04 16.9 C 8.92 g/m*3 16.9 C 0 km/h
55 14-06-2004 10:48:05 17.5 C 8.95 g/m*3 17.5 C 0 km/h
56 14-06-2004 11:00:05 18.2 C 9.33 g/m*3 18.2 C 0 km/h
57 14-06-2004 11:12:05 18.8 C 8.7 g/m*3 18.8 C 0 km/h
58 14-06-2004 11:24:05 19.7 C 9 g/m*3 19.7 C 0 km/h
59 14-06-2004 11:36:05 20.2 C 8.57 g/m*3 20.2 C 0 km/h
60 14-06-2004 11:48:05 19.7 C 8.15 g/m*3 19.7 C 0 km/h
61 14-06-2004 12:00:05 21 C 8.79 g/m*3 21 C 0 km/h
62 14-06-2004 12:12:05 22.2 C 8.83 g/m*3 22.2 C 0 km/h
63 14-06-2004 12:24:05 21.8 C 7.87 g/m*3 21.8 C 0 km/h
64 14-06-2004 12:36:05 23.5 C 8.04 g/m*3 23.5 C 0 km/h
65 14-06-2004 12:48:05 23.3 C 7.53 g/m*3 23.3 C 0 km/h
66 14-06-2004 13:00:06 23 C 7.4 g/m*3 23 C 0 km/h
67 14-06-2004 13:12:06 23.7 C 7.91 g/m*3 23.7 C 0 km/h
68 14-06-2004 13:24:06 25.7 C 7.66 g/m*3 25.7 C 0 km/h
69 14-06-2004 13:36:06 25.6 C 7.14 g/m*3 25.6 C 0 km/h
70 14-06-2004 13:48:06 25.4 C 7.06 g/m*3 25.4 C 0 km/h
71 14-06-2004 14:00:06 24.6 C 6.75 g/m*3 24.6 C 0 km/h
72 14-06-2004 14:12:06 24.5 C 6.71 g/m*3 24.5 C 0 km/h
73 14-06-2004 14:24:06 25.2 C 7.22 g/m*3 25.2 C 0 km/h
74 14-06-2004 14:36:06 24.6 C 6.98 g/m*3 24.6 C 0 km/h
75 14-06-2004 14:48:06 25 C 7.14 g/m*3 25 C 0 km/h
Sensor: Nr:Datum:Temp:Abs-Feuchte:Windchill:Wind:
Aussen-T/F 76 14-06-2004 15:00:06 26.3 C 7.18 g/m*3 26.3 C 0 km/h
77 14-06-2004 15:12:06 25.5 C 6.39 g/m*3 25.5 C 0 km/h
78 14-06-2004 15:24:06 26.3 C 6.44 g/m*3 26.3 C 0 km/h
79 14-06-2004 15:36:06 26.2 C 6.15 g/m*3 26.2 C 0 km/h
80 14-06-2004 15:48:01 26.2 C 5.42 g/m*3 26.2 C 0 km/h
81 14-06-2004 16:00:01 26 C 5.36 g/m*3 26 C 0 km/h
82 14-06-2004 16:12:01 26.5 C 5.76 g/m*3 26.5 C 0 km/h
83 14-06-2004 16:24:01 26 C 5.6 g/m*3 26 C 0 km/h
84 14-06-2004 16:36:01 26.4 C 4.98 g/m*3 26.4 C 0 km/h
85 14-06-2004 16:48:01 27.1 C 5.43 g/m*3 27.1 C 0 km/h
86 14-06-2004 17:00:01 27.4 C 6.05 g/m*3 27.4 C 0 km/h
87 14-06-2004 17:12:01 27.2 C 6.51 g/m*3 27.2 C 0 km/h
88 14-06-2004 17:24:02 26.3 C 6.44 g/m*3 26.3 C 0 km/h
89 14-06-2004 17:36:00 26.5 C 7.01 g/m*3 26.5 C 0 km/h
90 14-06-2004 17:48:03 26.4 C 6.97 g/m*3 26.4 C 0 km/h
91 14-06-2004 18:00:03 25.1 C 6.94 g/m*3 25.1 C 0 km/h
92 14-06-2004 18:12:01 24.4 C 7.57 g/m*3 24.4 C 0 km/h
93 14-06-2004 18:24:01 24.5 C 7.83 g/m*3 24.5 C 0 km/h
94 14-06-2004 18:36:01 24.7 C 7.92 g/m*3 24.7 C 0 km/h
95 14-06-2004 18:48:01 24.7 C 7.92 g/m*3 24.7 C 0 km/h
96 14-06-2004 19:00:01 24.8 C 8.19 g/m*3 24.8 C 0 km/h
97 14-06-2004 19:12:02 24.4 C 8.01 g/m*3 24.4 C 0 km/h
98 14-06-2004 19:24:02 23.9 C 8.44 g/m*3 23.9 C 0 km/h
99 14-06-2004 19:36:01 23.7 C 8.56 g/m*3 23.7 C 0 km/h
100 14-06-2004 19:48:02 23.6 C 9.78 g/m*3 23.6 C 0 km/h
Sensor: Nr:Datum:Temp:Abs-Feuchte:Windchill:Wind:
Aussen-T/F 101 14-06-2004 20:00:02 23.2 C 9.98 g/m*3 23.2 C 0 km/h
102 14-06-2004 20:12:02 22.7 C 9.5 g/m*3 22.7 C 0 km/h
103 14-06-2004 20:24:02 22.5 C 10.39 g/m*3 22.5 C 0 km/h
104 14-06-2004 20:36:01 22.3 C 10.47 g/m*3 22.3 C 0 km/h
105 14-06-2004 20:48:02 21.7 C 10.11 g/m*3 21.7 C 0 km/h
106 14-06-2004 21:00:02 21.2 C 9.82 g/m*3 21.2 C 0 km/h
107 14-06-2004 21:12:01 20.6 C 10.02 g/m*3 20.6 C 0 km/h
108 14-06-2004 21:24:01 19.9 C 9.97 g/m*3 19.9 C 0 km/h
109 14-06-2004 21:36:02 19.1 C 9.67 g/m*3 19.1 C 0 km/h
110 14-06-2004 21:48:02 18.8 C 9.66 g/m*3 18.8 C 0 km/h
111 14-06-2004 22:00:02 18.5 C 9.33 g/m*3 18.5 C 0 km/h
112 14-06-2004 22:12:01 18.1 C 9.27 g/m*3 18.1 C 0 km/h
113 14-06-2004 22:24:02 17.7 C 9.51 g/m*3 17.7 C 0 km/h
114 14-06-2004 22:36:03 17.4 C 9.34 g/m*3 17.4 C 0 km/h
115 14-06-2004 22:48:04 17.3 C 9.58 g/m*3 17.3 C 0 km/h
116 14-06-2004 23:00:04 17.6 C 9.75 g/m*3 17.6 C 0 km/h
117 14-06-2004 23:12:01 17.5 C 9.84 g/m*3 17.5 C 0 km/h
118 14-06-2004 23:24:01 17.3 C 9.87 g/m*3 17.3 C 0 km/h
119 14-06-2004 23:36:01 17.1 C 9.75 g/m*3 17.1 C 0 km/h
120 14-06-2004 23:48:01 16.9 C 9.92 g/m*3 16.9 C 0 km/h
121 15-06-2004 00:00:01 16.6 C 9.89 g/m*3 16.6 C 0 km/h
122 15-06-2004 00:12:01 16.5 C 9.97 g/m*3 16.5 C 0 km/h
123 15-06-2004 00:24:01 16.3 C 9.99 g/m*3 16.3 C 0 km/h
124 15-06-2004 00:36:01 16.2 C 9.93 g/m*3 16.2 C 0 km/h
125 15-06-2004 00:48:01 15.9 C 10.02 g/m*3 15.9 C 0 km/h
Sensor: Nr:Datum:Temp:Abs-Feuchte:Windchill:Wind:
Aussen-T/F 126 15-06-2004 01:00:01 15.8 C 10.1 g/m*3 15.8 C 0 km/h
127 15-06-2004 01:12:01 15.6 C 9.97 g/m*3 15.6 C 0 km/h
128 15-06-2004 01:24:01 15.6 C 10.11 g/m*3 15.6 C 0 km/h
129 15-06-2004 01:36:01 15.3 C 10.06 g/m*3 15.3 C 0 km/h
130 15-06-2004 01:48:01 15.1 C 10.06 g/m*3 15.1 C 0 km/h
131 15-06-2004 02:00:01 14.9 C 10.2 g/m*3 14.9 C 0 km/h
132 15-06-2004 02:12:01 14.8 C 10.26 g/m*3 14.8 C 0 km/h
133 15-06-2004 02:24:01 14.5 C 10.2 g/m*3 14.5 C 0 km/h
134 15-06-2004 02:36:01 14.5 C 10.2 g/m*3 14.5 C 0 km/h
135 15-06-2004 02:49:02 14.2 C 10.14 g/m*3 14.2 C 0 km/h
136 15-06-2004 03:01:02 14.2 C 10.14 g/m*3 14.2 C 0 km/h
137 15-06-2004 03:13:02 14 C 10.01 g/m*3 14 C 0 km/h
138 15-06-2004 03:25:02 13.8 C 10.01 g/m*3 13.8 C 0 km/h
139 15-06-2004 03:37:01 13.7 C 10.07 g/m*3 13.7 C 0 km/h
140 15-06-2004 03:49:01 13.6 C 10 g/m*3 13.6 C 0 km/h
141 15-06-2004 04:01:01 13.5 C 9.94 g/m*3 13.5 C 0 km/h
142 15-06-2004 04:13:01 13.5 C 9.94 g/m*3 13.5 C 0 km/h
143 15-06-2004 04:25:01 13.4 C 9.88 g/m*3 13.4 C 0 km/h
144 15-06-2004 04:37:01 13.3 C 9.94 g/m*3 13.3 C 0 km/h
145 15-06-2004 04:49:01 13.2 C 9.87 g/m*3 13.2 C 0 km/h
146 15-06-2004 05:01:01 13.2 C 9.87 g/m*3 13.2 C 0 km/h
147 15-06-2004 05:13:01 13.1 C 9.81 g/m*3 13.1 C 0 km/h
148 15-06-2004 05:25:01 13 C 9.75 g/m*3 13 C 0 km/h
149 15-06-2004 05:37:01 13.1 C 9.81 g/m*3 13.1 C 0 km/h
150 15-06-2004 05:49:01 13.2 C 9.87 g/m*3 13.2 C 0 km/h
Sensor: Nr:Datum:Temp:Abs-Feuchte:Windchill:Wind:
Aussen-T/F 151 15-06-2004 06:01:01 13.4 C 9.88 g/m*3 13.4 C 0 km/h
152 15-06-2004 06:13:01 13.6 C 9.89 g/m*3 13.6 C 0 km/h
153 15-06-2004 06:25:01 13.4 C 9.76 g/m*3 13.4 C 0 km/h
154 15-06-2004 06:37:02 13.4 C 9.76 g/m*3 13.4 C 0 km/h
155 15-06-2004 06:49:02 13.4 C 9.76 g/m*3 13.4 C 0 km/h
156 15-06-2004 07:01:01 13.4 C 9.76 g/m*3 13.4 C 0 km/h
157 15-06-2004 07:13:01 13.6 C 9.89 g/m*3 13.6 C 0 km/h
158 15-06-2004 07:25:02 14 C 10.01 g/m*3 14 C 0 km/h
159 15-06-2004 07:37:02 14.6 C 10.26 g/m*3 14.6 C 0 km/h
160 15-06-2004 07:49:02 14.7 C 9.95 g/m*3 14.7 C 0 km/h
161 15-06-2004 08:01:02 14.9 C 10.07 g/m*3 14.9 C 0 km/h
162 15-06-2004 08:13:02 15.2 C 10.12 g/m*3 15.2 C 0 km/h
163 15-06-2004 08:25:02 15.4 C 10.25 g/m*3 15.4 C 0 km/h
164 15-06-2004 08:37:02 15.7 C 10.44 g/m*3 15.7 C 0 km/h
165 15-06-2004 08:49:01 16 C 10.63 g/m*3 16 C 0 km/h
166 15-06-2004 09:01:01 17.1 C 10.77 g/m*3 17.1 C 0 km/h
167 15-06-2004 09:13:01 17.3 C 10.61 g/m*3 17.3 C 0 km/h
168 15-06-2004 09:25:01 17.9 C 11.15 g/m*3 17.9 C 0 km/h
169 15-06-2004 09:37:01 18.5 C 11.08 g/m*3 18.5 C 0 km/h
170 15-06-2004 09:49:01 19.3 C 11.44 g/m*3 19.3 C 0 km/h
171 15-06-2004 10:01:01 20 C 11.58 g/m*3 20 C 0 km/h
172 15-06-2004 10:13:01 20.4 C 11.5 g/m*3 20.4 C 0 km/h
173 15-06-2004 10:25:01 21 C 11.17 g/m*3 21 C 0 km/h
174 15-06-2004 10:37:01 21.6 C 11.19 g/m*3 21.6 C 0 km/h
175 15-06-2004 10:49:01 22 C 11.06 g/m*3 22 C 0 km/h
Sensor: Nr:Datum:Temp:Abs-Feuchte:Windchill:Wind:
Aussen-T/F 176 15-06-2004 11:01:01 22.9 C 11.24 g/m*3 22.9 C 0 km/h
177 15-06-2004 11:13:01 23.1 C 11.16 g/m*3 23.1 C 0 km/h
178 15-06-2004 11:25:01 23.1 C 11.16 g/m*3 23.1 C 0 km/h
179 15-06-2004 11:37:01 24 C 11.31 g/m*3 24 C 0 km/h
180 15-06-2004 11:49:01 24.8 C 11.38 g/m*3 24.8 C 0 km/h
181 15-06-2004 12:01:01 26.2 C 11.08 g/m*3 26.2 C 0 km/h
182 15-06-2004 12:13:01 27.3 C 11.25 g/m*3 27.3 C 0 km/h
183 15-06-2004 12:25:01 26.5 C 10.51 g/m*3 26.5 C 0 km/h
184 15-06-2004 12:37:01 27.2 C 10.41 g/m*3 27.2 C 0 km/h
185 15-06-2004 12:49:01 28.7 C 10.46 g/m*3 28.7 C 0 km/h
186 15-06-2004 13:01:01 27.3 C 10.47 g/m*3 27.3 C 0 km/h
187 15-06-2004 13:13:01 26.9 C 10.49 g/m*3 26.9 C 0 km/h
188 15-06-2004 13:25:01 28.1 C 10.94 g/m*3 28.1 C 0 km/h
189 15-06-2004 13:37:01 28 C 11.42 g/m*3 28 C 0 km/h
190 15-06-2004 13:49:01 28.7 C 9.89 g/m*3 28.7 C 0 km/h
191 15-06-2004 14:01:01 27.1 C 10.87 g/m*3 27.1 C 0 km/h
192 15-06-2004 14:13:01 26.9 C 11.26 g/m*3 26.9 C 0 km/h
193 15-06-2004 14:25:01 26.6 C 12.33 g/m*3 26.6 C 0 km/h
194 15-06-2004 14:37:01 27.4 C 11.31 g/m*3 27.4 C 0 km/h
195 15-06-2004 14:49:01 27 C 9.26 g/m*3 27 C 0 km/h
196 15-06-2004 15:01:01 26.8 C 10.18 g/m*3 26.8 C 0 km/h
197 15-06-2004 15:13:01 27.3 C 9.16 g/m*3 27.3 C 0 km/h
198 15-06-2004 15:25:01 28.1 C 9.57 g/m*3 28.1 C 0 km/h
199 15-06-2004 15:37:01 28.4 C 8.62 g/m*3 28.4 C 0 km/h
200 15-06-2004 15:49:01 28.8 C 8.81 g/m*3 28.8 C 0 km/h
Sensor: Nr:Datum:Temp:Abs-Feuchte:Windchill:Wind:
Aussen-T/F 201 15-06-2004 16:01:01 29 C 8.9 g/m*3 29 C 0 km/h
202 15-06-2004 16:13:01 28.3 C 9.4 g/m*3 28.3 C 0 km/h
203 15-06-2004 16:25:01 28.2 C 9.07 g/m*3 28.2 C 0 km/h
204 15-06-2004 16:37:01 28.8 C 10.23 g/m*3 28.8 C 0 km/h
205 15-06-2004 16:49:02 29.1 C 9.82 g/m*3 29.1 C 0 km/h
206 15-06-2004 17:01:01 28.3 C 9.95 g/m*3 28.3 C 0 km/h
207 15-06-2004 17:13:01 27.4 C 9.74 g/m*3 27.4 C 0 km/h
208 15-06-2004 17:25:01 27.4 C 10 g/m*3 27.4 C 0 km/h
209 15-06-2004 17:37:01 26.7 C 9.62 g/m*3 26.7 C 0 km/h
210 15-06-2004 17:49:01 27.3 C 9.68 g/m*3 27.3 C 0 km/h
211 15-06-2004 18:01:01 28.3 C 9.68 g/m*3 28.3 C 0 km/h
212 15-06-2004 18:13:01 28 C 9.79 g/m*3 28 C 0 km/h
213 15-06-2004 18:25:01 28.1 C 9.84 g/m*3 28.1 C 0 km/h
214 15-06-2004 18:37:01 28.6 C 10.12 g/m*3 28.6 C 0 km/h
215 15-06-2004 18:49:01 27.2 C 10.15 g/m*3 27.2 C 0 km/h
216 15-06-2004 19:01:01 26.6 C 10.57 g/m*3 26.6 C 0 km/h
217 15-06-2004 19:13:01 25.6 C 10.71 g/m*3 25.6 C 0 km/h
218 15-06-2004 19:25:01 24.8 C 10.93 g/m*3 24.8 C 0 km/h
219 15-06-2004 19:37:01 24.6 C 11.03 g/m*3 24.6 C 0 km/h
220 15-06-2004 19:49:03 24 C 10.88 g/m*3 24 C 0 km/h
221 15-06-2004 20:01:02 23.6 C 11.06 g/m*3 23.6 C 0 km/h
222 15-06-2004 20:13:02 23.3 C 10.87 g/m*3 23.3 C 0 km/h
223 15-06-2004 20:25:02 22.9 C 11.24 g/m*3 22.9 C 0 km/h
224 15-06-2004 20:37:03 22.3 C 11.26 g/m*3 22.3 C 0 km/h
225 15-06-2004 20:49:01 22.2 C 11.39 g/m*3 22.2 C 0 km/h
Sensor: Nr:Datum:Temp:Abs-Feuchte:Windchill:Wind:
Aussen-T/F 226 15-06-2004 21:01:01 21.7 C 11.45 g/m*3 21.7 C 0 km/h
227 15-06-2004 21:13:01 21 C 11.54 g/m*3 21 C 0 km/h
228 15-06-2004 21:25:02 20.8 C 11.77 g/m*3 20.8 C 0 km/h
229 15-06-2004 21:37:01 20.5 C 11.39 g/m*3 20.5 C 0 km/h
230 15-06-2004 21:49:02 20.4 C 11.32 g/m*3 20.4 C 0 km/h
231 15-06-2004 22:01:03 20.2 C 11.02 g/m*3 20.2 C 0 km/h
232 15-06-2004 22:13:03 19.9 C 10.82 g/m*3 19.9 C 0 km/h
233 15-06-2004 22:25:03 19.6 C 10.13 g/m*3 19.6 C 0 km/h
234 15-06-2004 22:37:04 19.5 C 10.24 g/m*3 19.5 C 0 km/h
235 15-06-2004 22:49:02 19.4 C 10.34 g/m*3 19.4 C 0 km/h
236 15-06-2004 23:01:01 19 C 10.27 g/m*3 19 C 0 km/h
237 15-06-2004 23:13:01 18.9 C 10.21 g/m*3 18.9 C 0 km/h
238 15-06-2004 23:25:01 18.9 C 10.37 g/m*3 18.9 C 0 km/h
239 15-06-2004 23:37:01 18.9 C 10.21 g/m*3 18.9 C 0 km/h
240 15-06-2004 23:49:01 18.8 C 10.15 g/m*3 18.8 C 0 km/h
241 16-06-2004 00:01:01 18.4 C 10.22 g/m*3 18.4 C 0 km/h
242 16-06-2004 00:13:01 18.3 C 10.16 g/m*3 18.3 C 0 km/h
243 16-06-2004 00:25:01 17.6 C 9.45 g/m*3 17.6 C 0 km/h
244 16-06-2004 00:37:01 17.7 C 9.2 g/m*3 17.7 C 0 km/h
245 16-06-2004 00:49:01 17.9 C 9.16 g/m*3 17.9 C 0 km/h
246 16-06-2004 01:01:01 17.5 C 9.09 g/m*3 17.5 C 0 km/h
247 16-06-2004 01:13:01 17.2 C 9.23 g/m*3 17.2 C 0 km/h
248 16-06-2004 01:25:01 16.9 C 9.35 g/m*3 16.9 C 0 km/h
249 16-06-2004 01:37:01 16.4 C 9.07 g/m*3 16.4 C 0 km/h
250 16-06-2004 01:49:01 16.1 C 8.64 g/m*3 16.1 C 0 km/h
Sensor: Nr:Datum:Temp:Abs-Feuchte:Windchill:Wind:
Aussen-T/F 251 16-06-2004 02:01:01 15.9 C 8.53 g/m*3 15.9 C 0 km/h
252 16-06-2004 02:13:01 15.6 C 8.78 g/m*3 15.6 C 0 km/h
253 16-06-2004 02:25:01 15.6 C 8.78 g/m*3 15.6 C 0 km/h
254 16-06-2004 02:37:01 15.3 C 8.88 g/m*3 15.3 C 0 km/h
255 16-06-2004 02:50:02 15.1 C 9.16 g/m*3 15.1 C 0 km/h
256 16-06-2004 03:02:02 15 C 9.23 g/m*3 15 C 0 km/h
257 16-06-2004 03:14:02 15.2 C 9.09 g/m*3 15.2 C 0 km/h
258 16-06-2004 03:26:02 15 C 8.85 g/m*3 15 C 0 km/h
259 16-06-2004 03:38:01 14.9 C 8.92 g/m*3 14.9 C 0 km/h
260 16-06-2004 03:50:01 14.8 C 8.87 g/m*3 14.8 C 0 km/h
261 16-06-2004 04:02:01 14.5 C 8.83 g/m*3 14.5 C 0 km/h
262 16-06-2004 04:14:01 14.5 C 8.83 g/m*3 14.5 C 0 km/h
263 16-06-2004 04:26:01 14.2 C 8.67 g/m*3 14.2 C 0 km/h
264 16-06-2004 04:38:01 14.1 C 8.62 g/m*3 14.1 C 0 km/h
265 16-06-2004 04:50:01 13.7 C 8.41 g/m*3 13.7 C 0 km/h
266 16-06-2004 05:02:01 13.6 C 8.47 g/m*3 13.6 C 0 km/h
267 16-06-2004 05:14:01 13.6 C 8.24 g/m*3 13.6 C 0 km/h
268 16-06-2004 05:26:01 13.7 C 8.17 g/m*3 13.7 C 0 km/h
269 16-06-2004 05:38:01 13.4 C 7.9 g/m*3 13.4 C 0 km/h
270 16-06-2004 05:50:01 13.3 C 7.97 g/m*3 13.3 C 0 km/h
271 16-06-2004 06:02:01 13.2 C 7.81 g/m*3 13.2 C 0 km/h
272 16-06-2004 06:14:01 13.2 C 7.81 g/m*3 13.2 C 0 km/h
273 16-06-2004 06:26:01 13.2 C 7.58 g/m*3 13.2 C 0 km/h
274 16-06-2004 06:38:01 12.8 C 7.62 g/m*3 12.8 C 0 km/h
275 16-06-2004 06:50:01 12.9 C 7.66 g/m*3 12.9 C 0 km/h
Sensor: Nr:Datum:Temp:Abs-Feuchte:Windchill:Wind:
Aussen-T/F 276 16-06-2004 07:02:01 13 C 7.6 g/m*3 13 C 0 km/h
277 16-06-2004 07:14:01 13.1 C 7.42 g/m*3 13.1 C 0 km/h
278 16-06-2004 07:26:02 13.2 C 7.23 g/m*3 13.2 C 0 km/h
279 16-06-2004 07:38:01 13.3 C 7.28 g/m*3 13.3 C 0 km/h
280 16-06-2004 07:50:01 13.9 C 7.31 g/m*3 13.9 C 0 km/h
281 16-06-2004 08:02:02 14.1 C 6.43 g/m*3 14.1 C 0 km/h
282 16-06-2004 08:14:02 14.4 C 6.68 g/m*3 14.4 C 0 km/h
283 16-06-2004 08:26:01 14.9 C 6.5 g/m*3 14.9 C 0 km/h
284 16-06-2004 08:38:02 14.7 C 6.42 g/m*3 14.7 C 0 km/h
285 16-06-2004 08:50:02 14.8 C 6.46 g/m*3 14.8 C 0 km/h
286 16-06-2004 09:02:02 15 C 6.54 g/m*3 15 C 0 km/h
287 16-06-2004 09:14:02 15.1 C 5.81 g/m*3 15.1 C 0 km/h
288 16-06-2004 09:26:02 15.1 C 5.93 g/m*3 15.1 C 0 km/h
289 16-06-2004 09:38:02 16 C 6.13 g/m*3 16 C 0 km/h
290 16-06-2004 09:50:01 16.4 C 6 g/m*3 16.4 C 0 km/h
291 16-06-2004 10:02:01 16.1 C 6.03 g/m*3 16.1 C 0 km/h
292 16-06-2004 10:14:01 15.2 C 6.36 g/m*3 15.2 C 0 km/h
293 16-06-2004 10:26:01 15.2 C 6.62 g/m*3 15.2 C 0 km/h
294 16-06-2004 10:38:01 15.2 C 6.88 g/m*3 15.2 C 0 km/h
295 16-06-2004 10:50:01 15.5 C 7.01 g/m*3 15.5 C 0 km/h
296 16-06-2004 11:02:01 15.8 C 7.13 g/m*3 15.8 C 0 km/h
297 16-06-2004 11:14:01 16 C 7.08 g/m*3 16 C 0 km/h
298 16-06-2004 11:26:01 15.2 C 7.27 g/m*3 15.2 C 0 km/h
299 16-06-2004 11:38:01 15.6 C 7.31 g/m*3 15.6 C 0 km/h
300 16-06-2004 11:50:01 16.4 C 7.26 g/m*3 16.4 C 0 km/h
Sensor: Nr:Datum:Temp:Abs-Feuchte:Windchill:Wind:
Aussen-T/F 301 16-06-2004 12:02:01 17 C 6.95 g/m*3 17 C 0 km/h
302 16-06-2004 12:14:01 17.1 C 6.84 g/m*3 17.1 C 0 km/h
303 16-06-2004 12:26:01 17.3 C 7.07 g/m*3 17.3 C 0 km/h
304 16-06-2004 12:38:01 17.4 C 6.67 g/m*3 17.4 C 0 km/h
305 16-06-2004 12:50:01 18 C 6.76 g/m*3 18 C 0 km/h
306 16-06-2004 13:02:01 18.5 C 6.49 g/m*3 18.5 C 0 km/h
307 16-06-2004 13:14:01 18.3 C 6.25 g/m*3 18.3 C 0 km/h
308 16-06-2004 13:26:01 18.7 C 6.24 g/m*3 18.7 C 0 km/h
309 16-06-2004 13:38:00 18.7 C 6.4 g/m*3 18.7 C 0 km/h
310 16-06-2004 13:50:01 19.2 C 5.61 g/m*3 19.2 C 0 km/h
311 16-06-2004 14:02:01 19 C 6.03 g/m*3 19 C 0 km/h
312 16-06-2004 14:14:01 18.3 C 6.1 g/m*3 18.3 C 0 km/h
313 16-06-2004 14:26:01 19.1 C 6.23 g/m*3 19.1 C 0 km/h
314 16-06-2004 14:38:01 20.7 C 6.48 g/m*3 20.7 C 0 km/h
315 16-06-2004 14:50:01 20.2 C 6.12 g/m*3 20.2 C 0 km/h
316 16-06-2004 15:02:01 20.3 C 6.16 g/m*3 20.3 C 0 km/h
317 16-06-2004 15:14:01 22.1 C 6.83 g/m*3 22.1 C 0 km/h
318 16-06-2004 15:26:02 22.4 C 6.16 g/m*3 22.4 C 0 km/h
319 16-06-2004 15:38:01 22.5 C 6.39 g/m*3 22.5 C 0 km/h
320 16-06-2004 15:50:01 21.5 C 6.03 g/m*3 21.5 C 0 km/h
321 16-06-2004 16:02:01 20.9 C 6.37 g/m*3 20.9 C 0 km/h
322 16-06-2004 16:14:01 21.7 C 6.49 g/m*3 21.7 C 0 km/h
323 16-06-2004 16:26:01 21 C 5.68 g/m*3 21 C 0 km/h
324 16-06-2004 16:38:01 22.5 C 6.59 g/m*3 22.5 C 0 km/h
325 16-06-2004 16:50:01 22.9 C 6.13 g/m*3 22.9 C 0 km/h
Sensor: Nr:Datum:Temp:Abs-Feuchte:Windchill:Wind:
Aussen-T/F 326 16-06-2004 17:02:01 20.8 C 5.98 g/m*3 20.8 C 0 km/h
327 16-06-2004 17:14:01 22.2 C 6.09 g/m*3 22.2 C 0 km/h
328 16-06-2004 17:26:01 22 C 5.82 g/m*3 22 C 0 km/h
329 16-06-2004 17:38:01 21.1 C 6.26 g/m*3 21.1 C 0 km/h
330 16-06-2004 17:50:01 22.2 C 5.89 g/m*3 22.2 C 0 km/h
331 16-06-2004 18:02:01 21.9 C 5.79 g/m*3 21.9 C 0 km/h
332 16-06-2004 18:14:01 21.1 C 5.71 g/m*3 21.1 C 0 km/h
333 16-06-2004 18:26:01 21.8 C 5.95 g/m*3 21.8 C 0 km/h
334 16-06-2004 18:38:01 21.8 C 6.33 g/m*3 21.8 C 0 km/h
335 16-06-2004 18:50:01 21.6 C 6.07 g/m*3 21.6 C 0 km/h
336 16-06-2004 19:02:01 21.6 C 6.26 g/m*3 21.6 C 0 km/h
337 16-06-2004 19:14:01 21.2 C 6.3 g/m*3 21.2 C 0 km/h
338 16-06-2004 19:26:01 21.5 C 6.6 g/m*3 21.5 C 0 km/h
339 16-06-2004 19:38:01 22 C 6.6 g/m*3 22 C 0 km/h
340 16-06-2004 19:50:01 21.9 C 6.75 g/m*3 21.9 C 0 km/h
341 16-06-2004 20:02:01 21.6 C 6.64 g/m*3 21.6 C 0 km/h
342 16-06-2004 20:14:01 20.6 C 6.62 g/m*3 20.6 C 0 km/h
343 16-06-2004 20:26:01 21.2 C 6.67 g/m*3 21.2 C 0 km/h
344 16-06-2004 20:38:01 20.2 C 6.64 g/m*3 20.2 C 0 km/h
345 16-06-2004 20:50:01 19.6 C 7.09 g/m*3 19.6 C 0 km/h
346 16-06-2004 21:02:01 19 C 7.33 g/m*3 19 C 0 km/h
347 16-06-2004 21:14:01 18.3 C 7.51 g/m*3 18.3 C 0 km/h
348 16-06-2004 21:26:01 17.4 C 7.56 g/m*3 17.4 C 0 km/h
349 16-06-2004 21:38:01 16.9 C 7.62 g/m*3 16.9 C 0 km/h
350 16-06-2004 21:50:01 16.5 C 7.44 g/m*3 16.5 C 0 km/h
Sensor: Nr:Datum:Temp:Abs-Feuchte:Windchill:Wind:
Aussen-T/F 351 16-06-2004 22:02:01 16 C 7.49 g/m*3 16 C 0 km/h
352 16-06-2004 22:14:01 16.1 C 7.68 g/m*3 16.1 C 0 km/h
353 16-06-2004 22:26:01 15.9 C 7.72 g/m*3 15.9 C 0 km/h
354 16-06-2004 22:38:01 15.4 C 7.62 g/m*3 15.4 C 0 km/h
355 16-06-2004 22:50:01 15.1 C 7.61 g/m*3 15.1 C 0 km/h
356 16-06-2004 23:02:01 14.7 C 7.81 g/m*3 14.7 C 0 km/h
357 16-06-2004 23:14:01 14.4 C 7.79 g/m*3 14.4 C 0 km/h
358 16-06-2004 23:26:01 14.2 C 7.82 g/m*3 14.2 C 0 km/h
359 16-06-2004 23:38:01 14.1 C 7.89 g/m*3 14.1 C 0 km/h
360 16-06-2004 23:50:01 13.9 C 8.03 g/m*3 13.9 C 0 km/h
361 17-06-2004 00:02:02 13.4 C 7.9 g/m*3 13.4 C 0 km/h
362 17-06-2004 00:14:02 13.2 C 7.92 g/m*3 13.2 C 0 km/h
363 17-06-2004 00:26:01 13.1 C 7.87 g/m*3 13.1 C 0 km/h
364 17-06-2004 00:38:01 12.8 C 8.06 g/m*3 12.8 C 0 km/h
365 17-06-2004 00:50:01 12.5 C 8.03 g/m*3 12.5 C 0 km/h
366 17-06-2004 01:02:01 12.3 C 7.93 g/m*3 12.3 C 0 km/h
367 17-06-2004 01:14:01 12.1 C 7.94 g/m*3 12.1 C 0 km/h
368 17-06-2004 01:26:01 12 C 7.99 g/m*3 12 C 0 km/h
369 17-06-2004 01:38:01 11.8 C 8 g/m*3 11.8 C 0 km/h
370 17-06-2004 01:50:01 11.5 C 7.85 g/m*3 11.5 C 0 km/h
371 17-06-2004 02:02:01 11.5 C 7.85 g/m*3 11.5 C 0 km/h
372 17-06-2004 02:14:01 11.6 C 8 g/m*3 11.6 C 0 km/h
373 17-06-2004 02:26:01 11.4 C 8.01 g/m*3 11.4 C 0 km/h
374 17-06-2004 02:38:01 11.3 C 7.96 g/m*3 11.3 C 0 km/h
375 17-06-2004 02:51:02 11.4 C 8.01 g/m*3 11.4 C 0 km/h
Sensor: Nr:Datum:Temp:Abs-Feuchte:Windchill:Wind:
Aussen-T/F 376 17-06-2004 03:03:02 11.5 C 7.95 g/m*3 11.5 C 0 km/h
377 17-06-2004 03:15:03 11.7 C 8.05 g/m*3 11.7 C 0 km/h
378 17-06-2004 03:27:03 12.1 C 7.94 g/m*3 12.1 C 0 km/h
379 17-06-2004 03:39:02 12.3 C 8.04 g/m*3 12.3 C 0 km/h
380 17-06-2004 03:51:02 12.5 C 8.03 g/m*3 12.5 C 0 km/h
381 17-06-2004 04:03:02 12.4 C 7.98 g/m*3 12.4 C 0 km/h
382 17-06-2004 04:15:02 12.1 C 7.83 g/m*3 12.1 C 0 km/h
383 17-06-2004 04:27:02 12.1 C 7.83 g/m*3 12.1 C 0 km/h
384 17-06-2004 04:39:02 12.2 C 7.77 g/m*3 12.2 C 0 km/h
385 17-06-2004 04:51:01 12.3 C 7.71 g/m*3 12.3 C 0 km/h
386 17-06-2004 05:03:01 12.3 C 7.71 g/m*3 12.3 C 0 km/h
387 17-06-2004 05:15:01 12.3 C 7.71 g/m*3 12.3 C 0 km/h
388 17-06-2004 05:27:01 12.3 C 7.82 g/m*3 12.3 C 0 km/h
389 17-06-2004 05:39:01 12.4 C 7.87 g/m*3 12.4 C 0 km/h
390 17-06-2004 05:51:01 12.4 C 7.98 g/m*3 12.4 C 0 km/h
391 17-06-2004 06:03:01 12.5 C 7.92 g/m*3 12.5 C 0 km/h
392 17-06-2004 06:15:01 12.7 C 7.9 g/m*3 12.7 C 0 km/h
393 17-06-2004 06:27:01 12.7 C 7.9 g/m*3 12.7 C 0 km/h
394 17-06-2004 06:39:01 12.8 C 7.84 g/m*3 12.8 C 0 km/h
395 17-06-2004 06:51:01 12.9 C 7.89 g/m*3 12.9 C 0 km/h
396 17-06-2004 07:03:01 12.7 C 7.9 g/m*3 12.7 C 0 km/h
397 17-06-2004 07:15:01 12.9 C 8 g/m*3 12.9 C 0 km/h
398 17-06-2004 07:27:01 13.4 C 7.9 g/m*3 13.4 C 0 km/h
399 17-06-2004 07:39:00 13.8 C 7.98 g/m*3 13.8 C 0 km/h
400 17-06-2004 07:51:01 14.2 C 7.94 g/m*3 14.2 C 0 km/h
Sensor: Nr:Datum:Temp:Abs-Feuchte:Windchill:Wind:
Aussen-T/F 401 17-06-2004 08:03:01 14.4 C 8.03 g/m*3 14.4 C 0 km/h
402 17-06-2004 08:15:01 14.5 C 8.08 g/m*3 14.5 C 0 km/h
403 17-06-2004 08:27:01 15 C 7.95 g/m*3 15 C 0 km/h
404 17-06-2004 08:39:01 16.1 C 7.81 g/m*3 16.1 C 0 km/h
405 17-06-2004 08:51:01 16.1 C 7.68 g/m*3 16.1 C 0 km/h
406 17-06-2004 09:03:01 16 C 7.77 g/m*3 16 C 0 km/h
407 17-06-2004 09:15:01 16.7 C 7.82 g/m*3 16.7 C 0 km/h
408 17-06-2004 09:27:01 16.8 C 7.86 g/m*3 16.8 C 0 km/h
409 17-06-2004 09:39:00 17 C 7.81 g/m*3 17 C 0 km/h
410 17-06-2004 09:51:01 16.9 C 8.05 g/m*3 16.9 C 0 km/h
411 17-06-2004 10:03:01 17 C 8.1 g/m*3 17 C 0 km/h
412 17-06-2004 10:15:01 18.6 C 8.59 g/m*3 18.6 C 0 km/h
413 17-06-2004 10:27:01 19.6 C 8.44 g/m*3 19.6 C 0 km/h
414 17-06-2004 10:39:01 19.1 C 8.36 g/m*3 19.1 C 0 km/h
415 17-06-2004 10:51:01 18.9 C 8.59 g/m*3 18.9 C 0 km/h
416 17-06-2004 11:03:01 19.4 C 8.34 g/m*3 19.4 C 0 km/h
417 17-06-2004 11:15:01 20.2 C 8.92 g/m*3 20.2 C 0 km/h
418 17-06-2004 11:27:01 20.7 C 9 g/m*3 20.7 C 0 km/h
419 17-06-2004 11:39:01 21.4 C 9 g/m*3 21.4 C 0 km/h
420 17-06-2004 11:51:01 22 C 8.93 g/m*3 22 C 0 km/h
421 17-06-2004 12:03:01 22.3 C 8.89 g/m*3 22.3 C 0 km/h
422 17-06-2004 12:15:01 23.2 C 8.94 g/m*3 23.2 C 0 km/h
423 17-06-2004 12:27:01 23.7 C 8.98 g/m*3 23.7 C 0 km/h
424 17-06-2004 12:39:01 23.1 C 8.48 g/m*3 23.1 C 0 km/h
425 17-06-2004 12:51:01 24.4 C 9.12 g/m*3 24.4 C 0 km/h
Sensor: Nr:Datum:Temp:Abs-Feuchte:Windchill:Wind:
Aussen-T/F 426 17-06-2004 13:03:01 24.2 C 8.8 g/m*3 24.2 C 0 km/h
427 17-06-2004 13:15:01 24.9 C 9.16 g/m*3 24.9 C 0 km/h
428 17-06-2004 13:27:01 24.8 C 8.42 g/m*3 24.8 C 0 km/h
429 17-06-2004 13:39:01 25.4 C 9.18 g/m*3 25.4 C 0 km/h
430 17-06-2004 13:51:01 25.3 C 8.9 g/m*3 25.3 C 0 km/h
431 17-06-2004 14:03:01 24.8 C 8.65 g/m*3 24.8 C 0 km/h
432 17-06-2004 14:15:01 24.7 C 9.05 g/m*3 24.7 C 0 km/h
433 17-06-2004 14:27:01 25.2 C 9.08 g/m*3 25.2 C 0 km/h
434 17-06-2004 14:39:01 25.7 C 8.86 g/m*3 25.7 C 0 km/h
435 17-06-2004 14:51:01 25.8 C 8.91 g/m*3 25.8 C 0 km/h
436 17-06-2004 15:03:01 25.8 C 8.67 g/m*3 25.8 C 0 km/h
437 17-06-2004 15:15:01 24.8 C 8.65 g/m*3 24.8 C 0 km/h
438 17-06-2004 15:27:01 25.2 C 8.85 g/m*3 25.2 C 0 km/h
439 17-06-2004 15:39:01 25.3 C 8.9 g/m*3 25.3 C 0 km/h
440 17-06-2004 15:51:01 25.9 C 8.72 g/m*3 25.9 C 0 km/h
441 17-06-2004 16:03:01 24.9 C 8.93 g/m*3 24.9 C 0 km/h
442 17-06-2004 16:15:01 22.9 C 9.81 g/m*3 22.9 C 0 km/h
443 17-06-2004 16:27:01 22.4 C 10.72 g/m*3 22.4 C 0 km/h
444 17-06-2004 16:39:01 23.1 C 10.96 g/m*3 23.1 C 0 km/h
445 17-06-2004 16:51:02 24.3 C 8.85 g/m*3 24.3 C 0 km/h
446 17-06-2004 17:03:02 23.3 C 10.66 g/m*3 23.3 C 0 km/h
447 17-06-2004 17:15:01 23.9 C 10.38 g/m*3 23.9 C 0 km/h
448 17-06-2004 17:27:01 23.8 C 9.68 g/m*3 23.8 C 0 km/h
449 17-06-2004 17:39:01 23.6 C 8.72 g/m*3 23.6 C 0 km/h
450 17-06-2004 17:51:02 22.5 C 9.39 g/m*3 22.5 C 0 km/h
Sensor: Nr:Datum:Temp:Abs-Feuchte:Windchill:Wind:
Aussen-T/F 451 17-06-2004 18:03:02 22.7 C 9.29 g/m*3 22.7 C 0 km/h
452 17-06-2004 18:15:01 24.2 C 8.8 g/m*3 24.2 C 0 km/h
453 17-06-2004 18:27:01 24.8 C 8.42 g/m*3 24.8 C 0 km/h
454 17-06-2004 18:39:02 23.6 C 7.87 g/m*3 23.6 C 0 km/h
455 17-06-2004 18:51:01 23.8 C 7.96 g/m*3 23.8 C 0 km/h
456 17-06-2004 19:03:02 23.1 C 8.06 g/m*3 23.1 C 0 km/h
457 17-06-2004 19:15:02 23.3 C 7.32 g/m*3 23.3 C 0 km/h
458 17-06-2004 19:27:02 23.9 C 6.71 g/m*3 23.9 C 0 km/h
459 17-06-2004 19:39:02 23.9 C 6.49 g/m*3 23.9 C 0 km/h
460 17-06-2004 19:51:02 22.9 C 6.54 g/m*3 22.9 C 0 km/h
461 17-06-2004 20:03:02 21.9 C 7.14 g/m*3 21.9 C 0 km/h
462 17-06-2004 20:15:02 22 C 7.18 g/m*3 22 C 0 km/h
463 17-06-2004 20:27:02 21.7 C 7.25 g/m*3 21.7 C 0 km/h
464 17-06-2004 20:39:02 21 C 7.33 g/m*3 21 C 0 km/h
465 17-06-2004 20:51:01 20.5 C 7.65 g/m*3 20.5 C 0 km/h
466 17-06-2004 21:03:01 20.1 C 8.17 g/m*3 20.1 C 0 km/h
467 17-06-2004 21:15:01 19.4 C 8.34 g/m*3 19.4 C 0 km/h
468 17-06-2004 21:27:01 18.8 C 8.37 g/m*3 18.8 C 0 km/h
469 17-06-2004 21:39:01 18.8 C 8.37 g/m*3 18.8 C 0 km/h
470 17-06-2004 21:51:01 18.7 C 8.33 g/m*3 18.7 C 0 km/h
471 17-06-2004 22:03:01 18.4 C 8.65 g/m*3 18.4 C 0 km/h
472 17-06-2004 22:15:01 18.2 C 8.7 g/m*3 18.2 C 0 km/h
473 17-06-2004 22:27:01 18.2 C 8.86 g/m*3 18.2 C 0 km/h
474 17-06-2004 22:39:01 18.1 C 8.96 g/m*3 18.1 C 0 km/h
475 17-06-2004 22:51:01 17.4 C 9.34 g/m*3 17.4 C 0 km/h
Sensor: Nr:Datum:Temp:Abs-Feuchte:Windchill:Wind:
Aussen-T/F 476 17-06-2004 23:03:00 17.5 C 9.09 g/m*3 17.5 C 0 km/h
477 17-06-2004 23:15:00 17.6 C 9.3 g/m*3 17.6 C 0 km/h
478 17-06-2004 23:27:00 17.5 C 9.24 g/m*3 17.5 C 0 km/h
479 17-06-2004 23:39:00 17.4 C 9.34 g/m*3 17.4 C 0 km/h
480 17-06-2004 23:51:01 15.9 C 9.75 g/m*3 15.9 C 0 km/h
481 18-06-2004 00:03:01 15.7 C 10.7 g/m*3 15.7 C 0 km/h
482 18-06-2004 00:15:00 15.2 C 10.64 g/m*3 15.2 C 0 km/h
483 18-06-2004 00:27:00 14.9 C 10.2 g/m*3 14.9 C 0 km/h
484 18-06-2004 00:39:00 14.7 C 10.32 g/m*3 14.7 C 0 km/h
485 18-06-2004 00:51:01 14.7 C 10.45 g/m*3 14.7 C 0 km/h
486 18-06-2004 01:03:01 15.2 C 9.73 g/m*3 15.2 C 0 km/h
487 18-06-2004 01:15:01 15.3 C 9.01 g/m*3 15.3 C 0 km/h
488 18-06-2004 01:27:01 15.3 C 8.75 g/m*3 15.3 C 0 km/h
489 18-06-2004 01:39:01 15.3 C 9.14 g/m*3 15.3 C 0 km/h
490 18-06-2004 01:51:01 15.3 C 9.53 g/m*3 15.3 C 0 km/h
491 18-06-2004 02:03:01 15.3 C 9.66 g/m*3 15.3 C 0 km/h
492 18-06-2004 02:15:01 15.2 C 9.61 g/m*3 15.2 C 0 km/h
493 18-06-2004 02:27:01 15.2 C 9.48 g/m*3 15.2 C 0 km/h
494 18-06-2004 02:39:01 15.2 C 9.35 g/m*3 15.2 C 0 km/h
495 18-06-2004 02:52:03 15.1 C 9.42 g/m*3 15.1 C 0 km/h
496 18-06-2004 03:04:03 15.2 C 9.35 g/m*3 15.2 C 0 km/h
497 18-06-2004 03:16:03 15.2 C 9.35 g/m*3 15.2 C 0 km/h
498 18-06-2004 03:28:03 15.2 C 9.35 g/m*3 15.2 C 0 km/h
499 18-06-2004 03:40:01 15.2 C 9.09 g/m*3 15.2 C 0 km/h
500 18-06-2004 03:52:01 15.1 C 9.03 g/m*3 15.1 C 0 km/h
Sensor: Nr:Datum:Temp:Abs-Feuchte:Windchill:Wind:
Aussen-T/F 501 18-06-2004 04:04:01 15.2 C 8.96 g/m*3 15.2 C 0 km/h
502 18-06-2004 04:16:00 15.1 C 8.77 g/m*3 15.1 C 0 km/h
503 18-06-2004 04:28:00 15 C 9.1 g/m*3 15 C 0 km/h
504 18-06-2004 04:40:00 15 C 8.98 g/m*3 15 C 0 km/h
505 18-06-2004 04:52:01 15 C 9.1 g/m*3 15 C 0 km/h
506 18-06-2004 05:04:01 14.8 C 8.99 g/m*3 14.8 C 0 km/h
507 18-06-2004 05:16:01 14.7 C 8.94 g/m*3 14.7 C 0 km/h
508 18-06-2004 05:28:01 14.7 C 8.94 g/m*3 14.7 C 0 km/h
509 18-06-2004 05:40:00 14.7 C 8.94 g/m*3 14.7 C 0 km/h
510 18-06-2004 05:52:01 14.5 C 8.83 g/m*3 14.5 C 0 km/h
511 18-06-2004 06:04:01 14.6 C 8.88 g/m*3 14.6 C 0 km/h
512 18-06-2004 06:16:01 14.5 C 8.83 g/m*3 14.5 C 0 km/h
513 18-06-2004 06:28:01 14.5 C 8.71 g/m*3 14.5 C 0 km/h
514 18-06-2004 06:40:01 14.1 C 8.98 g/m*3 14.1 C 0 km/h
515 18-06-2004 06:52:01 13.8 C 9.17 g/m*3 13.8 C 0 km/h
516 18-06-2004 07:04:01 13.5 C 9.36 g/m*3 13.5 C 0 km/h
517 18-06-2004 07:16:01 13.2 C 9.76 g/m*3 13.2 C 0 km/h
518 18-06-2004 07:28:01 13 C 9.75 g/m*3 13 C 0 km/h
519 18-06-2004 07:40:01 12.9 C 9.69 g/m*3 12.9 C 0 km/h
520 18-06-2004 07:52:01 13 C 9.75 g/m*3 13 C 0 km/h
521 18-06-2004 08:04:01 13.5 C 10.06 g/m*3 13.5 C 0 km/h
522 18-06-2004 08:16:01 13.9 C 10.07 g/m*3 13.9 C 0 km/h
523 18-06-2004 08:28:01 14.1 C 9.95 g/m*3 14.1 C 0 km/h
524 18-06-2004 08:40:01 14.1 C 9.71 g/m*3 14.1 C 0 km/h
525 18-06-2004 08:52:01 14.1 C 9.59 g/m*3 14.1 C 0 km/h
Sensor: Nr:Datum:Temp:Abs-Feuchte:Windchill:Wind:
Aussen-T/F 526 18-06-2004 09:04:01 14.1 C 9.59 g/m*3 14.1 C 0 km/h
527 18-06-2004 09:16:01 14.3 C 9.58 g/m*3 14.3 C 0 km/h
528 18-06-2004 09:28:01 14.2 C 9.89 g/m*3 14.2 C 0 km/h
529 18-06-2004 09:40:01 13.8 C 10.13 g/m*3 13.8 C 0 km/h
530 18-06-2004 09:52:01 13.5 C 10.29 g/m*3 13.5 C 0 km/h
531 18-06-2004 10:04:01 14 C 10.74 g/m*3 14 C 0 km/h
532 18-06-2004 10:16:01 14.5 C 10.94 g/m*3 14.5 C 0 km/h
533 18-06-2004 10:28:01 15.2 C 10.77 g/m*3 15.2 C 0 km/h
534 18-06-2004 10:40:01 15.3 C 10.19 g/m*3 15.3 C 0 km/h
535 18-06-2004 10:52:01 16.2 C 10.76 g/m*3 16.2 C 0 km/h
536 18-06-2004 11:04:01 16.2 C 10.2 g/m*3 16.2 C 0 km/h
537 18-06-2004 11:16:01 17.1 C 10.48 g/m*3 17.1 C 0 km/h
538 18-06-2004 11:28:01 17.6 C 10.2 g/m*3 17.6 C 0 km/h
539 18-06-2004 11:40:01 16.9 C 10.07 g/m*3 16.9 C 0 km/h
540 18-06-2004 11:52:01 17.4 C 10.08 g/m*3 17.4 C 0 km/h
541 18-06-2004 12:04:01 17.1 C 9.32 g/m*3 17.1 C 0 km/h
542 18-06-2004 12:16:01 16.2 C 9.52 g/m*3 16.2 C 0 km/h
543 18-06-2004 12:28:01 17.1 C 9.03 g/m*3 17.1 C 0 km/h
544 18-06-2004 12:40:01 17.8 C 8.5 g/m*3 17.8 C 0 km/h
545 18-06-2004 12:52:01 17.9 C 9.16 g/m*3 17.9 C 0 km/h
546 18-06-2004 13:04:01 17.7 C 9.35 g/m*3 17.7 C 0 km/h
547 18-06-2004 13:16:01 19 C 8.96 g/m*3 19 C 0 km/h
548 18-06-2004 13:28:01 19.7 C 9.17 g/m*3 19.7 C 0 km/h
549 18-06-2004 13:40:01 19.7 C 8.83 g/m*3 19.7 C 0 km/h
550 18-06-2004 13:52:01 20.6 C 8.05 g/m*3 20.6 C 0 km/h
Sensor: Nr:Datum:Temp:Abs-Feuchte:Windchill:Wind:
Aussen-T/F 551 18-06-2004 14:04:01 18.1 C 8.81 g/m*3 18.1 C 0 km/h
552 18-06-2004 14:16:01 15.4 C 9.85 g/m*3 15.4 C 0 km/h
553 18-06-2004 14:28:01 15.8 C 10.9 g/m*3 15.8 C 0 km/h
554 18-06-2004 14:40:01 18 C 11.06 g/m*3 18 C 0 km/h
555 18-06-2004 14:52:01 18.6 C 10.66 g/m*3 18.6 C 0 km/h
556 18-06-2004 15:04:01 18.5 C 10.92 g/m*3 18.5 C 0 km/h
557 18-06-2004 15:16:01 18.1 C 10.04 g/m*3 18.1 C 0 km/h
558 18-06-2004 15:28:01 17.3 C 9.58 g/m*3 17.3 C 0 km/h
559 18-06-2004 15:40:01 16.4 C 10.05 g/m*3 16.4 C 0 km/h
560 18-06-2004 15:52:01 15.2 C 10.51 g/m*3 15.2 C 0 km/h
561 18-06-2004 16:04:01 15.6 C 11.04 g/m*3 15.6 C 0 km/h
562 18-06-2004 16:16:01 16.4 C 11.03 g/m*3 16.4 C 0 km/h
563 18-06-2004 16:28:01 17.1 C 10.34 g/m*3 17.1 C 0 km/h
564 18-06-2004 16:40:01 16.3 C 9.16 g/m*3 16.3 C 0 km/h
565 18-06-2004 16:52:02 15.6 C 9.04 g/m*3 15.6 C 0 km/h
566 18-06-2004 17:04:02 15.8 C 9.56 g/m*3 15.8 C 0 km/h
567 18-06-2004 17:16:02 16.2 C 9.52 g/m*3 16.2 C 0 km/h
568 18-06-2004 17:28:02 16.6 C 9.75 g/m*3 16.6 C 0 km/h
569 18-06-2004 17:40:02 16.5 C 9.41 g/m*3 16.5 C 0 km/h
570 18-06-2004 17:52:01 17 C 9.84 g/m*3 17 C 0 km/h
571 18-06-2004 18:04:01 17.1 C 9.9 g/m*3 17.1 C 0 km/h
572 18-06-2004 18:16:01 16.5 C 9.83 g/m*3 16.5 C 0 km/h
573 18-06-2004 18:28:01 15.9 C 9.89 g/m*3 15.9 C 0 km/h
574 18-06-2004 18:40:01 15.8 C 9.42 g/m*3 15.8 C 0 km/h
575 18-06-2004 18:52:01 15.9 C 9.21 g/m*3 15.9 C 0 km/h
Sensor: Nr:Datum:Temp:Abs-Feuchte:Windchill:Wind:
Aussen-T/F 576 18-06-2004 19:04:01 15.8 C 9.15 g/m*3 15.8 C 0 km/h
577 18-06-2004 19:16:01 15.6 C 9.31 g/m*3 15.6 C 0 km/h
578 18-06-2004 19:28:01 15.8 C 9.69 g/m*3 15.8 C 0 km/h
579 18-06-2004 19:40:01 15.6 C 9.31 g/m*3 15.6 C 0 km/h
580 18-06-2004 19:52:01 15.6 C 9.58 g/m*3 15.6 C 0 km/h
581 18-06-2004 20:04:01 15.5 C 9.52 g/m*3 15.5 C 0 km/h
582 18-06-2004 20:16:01 15.5 C 9.25 g/m*3 15.5 C 0 km/h
583 18-06-2004 20:28:01 15.5 C 9.52 g/m*3 15.5 C 0 km/h
584 18-06-2004 20:40:01 15.4 C 9.46 g/m*3 15.4 C 0 km/h
585 18-06-2004 20:52:01 15.2 C 9.35 g/m*3 15.2 C 0 km/h
586 18-06-2004 21:04:01 15.2 C 9.48 g/m*3 15.2 C 0 km/h
587 18-06-2004 21:16:01 15.1 C 9.03 g/m*3 15.1 C 0 km/h
588 18-06-2004 21:28:01 15.1 C 8.9 g/m*3 15.1 C 0 km/h
589 18-06-2004 21:40:01 14.8 C 9.25 g/m*3 14.8 C 0 km/h
590 18-06-2004 21:52:01 15.2 C 8.83 g/m*3 15.2 C 0 km/h
591 18-06-2004 22:04:01 15.2 C 8.83 g/m*3 15.2 C 0 km/h
592 18-06-2004 22:18:11 15.2 C 8.83 g/m*3 15.2 C 0 km/h
593 18-06-2004 22:30:11 14.7 C 9.07 g/m*3 14.7 C 0 km/h
594 18-06-2004 22:42:11 14.6 C 9.13 g/m*3 14.6 C 0 km/h
595 18-06-2004 22:54:11 14.5 C 9.2 g/m*3 14.5 C 0 km/h
596 18-06-2004 23:06:11 14.5 C 9.2 g/m*3 14.5 C 0 km/h
597 18-06-2004 23:18:11 14.4 C 9.15 g/m*3 14.4 C 0 km/h
598 18-06-2004 23:30:11 14.2 C 9.28 g/m*3 14.2 C 0 km/h
599 18-06-2004 23:42:11 14.3 C 9.58 g/m*3 14.3 C 0 km/h
600 18-06-2004 23:54:11 14.5 C 9.45 g/m*3 14.5 C 0 km/h
Sensor: Nr:Datum:Temp:Abs-Feuchte:Windchill:Wind:
Aussen-T/F 601 19-06-2004 00:06:11 14.5 C 9.58 g/m*3 14.5 C 0 km/h
602 19-06-2004 00:18:11 14.4 C 9.52 g/m*3 14.4 C 0 km/h
603 19-06-2004 00:30:11 14.4 C 9.52 g/m*3 14.4 C 0 km/h
604 19-06-2004 00:42:11 14.4 C 9.39 g/m*3 14.4 C 0 km/h
605 19-06-2004 00:54:12 14.4 C 9.39 g/m*3 14.4 C 0 km/h
606 19-06-2004 01:06:12 14.4 C 9.15 g/m*3 14.4 C 0 km/h
607 19-06-2004 01:18:12 14.4 C 9.02 g/m*3 14.4 C 0 km/h
608 19-06-2004 01:30:12 14.4 C 9.15 g/m*3 14.4 C 0 km/h
609 19-06-2004 01:42:12 14.3 C 8.97 g/m*3 14.3 C 0 km/h
610 19-06-2004 01:54:12 13.9 C 9.11 g/m*3 13.9 C 0 km/h
611 19-06-2004 02:06:12 13.9 C 9.23 g/m*3 13.9 C 0 km/h
612 19-06-2004 02:18:12 13.7 C 9.12 g/m*3 13.7 C 0 km/h
613 19-06-2004 02:30:12 13.8 C 9.29 g/m*3 13.8 C 0 km/h
614 19-06-2004 02:42:12 13.8 C 9.29 g/m*3 13.8 C 0 km/h
615 19-06-2004 02:54:12 13.9 C 9.23 g/m*3 13.9 C 0 km/h
616 19-06-2004 03:06:12 13.8 C 9.17 g/m*3 13.8 C 0 km/h
617 19-06-2004 03:18:12 13.9 C 9.11 g/m*3 13.9 C 0 km/h
618 19-06-2004 03:30:12 13.8 C 9.17 g/m*3 13.8 C 0 km/h
619 19-06-2004 03:42:12 13.6 C 9.06 g/m*3 13.6 C 0 km/h
620 19-06-2004 03:54:12 13.7 C 9.12 g/m*3 13.7 C 0 km/h
621 19-06-2004 04:06:12 13.6 C 9.06 g/m*3 13.6 C 0 km/h
622 19-06-2004 04:18:12 13.4 C 8.95 g/m*3 13.4 C 0 km/h
623 19-06-2004 04:30:12 13.4 C 9.07 g/m*3 13.4 C 0 km/h
624 19-06-2004 04:42:12 13.4 C 9.07 g/m*3 13.4 C 0 km/h
625 19-06-2004 04:54:12 13.3 C 9.01 g/m*3 13.3 C 0 km/h
Sensor: Nr:Datum:Temp:Abs-Feuchte:Windchill:Wind:
Aussen-T/F 626 19-06-2004 05:06:12 13.2 C 8.96 g/m*3 13.2 C 0 km/h
627 19-06-2004 05:18:13 13.2 C 8.84 g/m*3 13.2 C 0 km/h
628 19-06-2004 05:30:13 13.2 C 8.73 g/m*3 13.2 C 0 km/h
629 19-06-2004 05:42:13 13.1 C 8.33 g/m*3 13.1 C 0 km/h
630 19-06-2004 05:54:13 13 C 7.94 g/m*3 13 C 0 km/h
631 19-06-2004 06:06:13 13.1 C 7.87 g/m*3 13.1 C 0 km/h
632 19-06-2004 06:18:13 13 C 7.83 g/m*3 13 C 0 km/h
633 19-06-2004 06:30:13 13.1 C 7.99 g/m*3 13.1 C 0 km/h
634 19-06-2004 06:42:13 13.1 C 7.87 g/m*3 13.1 C 0 km/h
635 19-06-2004 06:54:13 13 C 7.71 g/m*3 13 C 0 km/h
636 19-06-2004 07:06:13 13.1 C 7.87 g/m*3 13.1 C 0 km/h
637 19-06-2004 07:18:13 13.3 C 7.86 g/m*3 13.3 C 0 km/h
638 19-06-2004 07:30:13 13.2 C 7.81 g/m*3 13.2 C 0 km/h
639 19-06-2004 07:42:13 13.2 C 7.69 g/m*3 13.2 C 0 km/h
640 19-06-2004 07:54:13 13.1 C 7.53 g/m*3 13.1 C 0 km/h
641 19-06-2004 08:06:13 13.4 C 7.79 g/m*3 13.4 C 0 km/h
642 19-06-2004 08:18:14 13.8 C 7.74 g/m*3 13.8 C 0 km/h
643 19-06-2004 08:30:14 13.7 C 7.58 g/m*3 13.7 C 0 km/h
644 19-06-2004 08:42:14 13.5 C 7.25 g/m*3 13.5 C 0 km/h
645 19-06-2004 08:54:14 13.7 C 7.34 g/m*3 13.7 C 0 km/h
646 19-06-2004 09:06:14 13.8 C 7.27 g/m*3 13.8 C 0 km/h
647 19-06-2004 09:18:14 13.8 C 7.15 g/m*3 13.8 C 0 km/h
648 19-06-2004 09:30:14 14.2 C 7.33 g/m*3 14.2 C 0 km/h
649 19-06-2004 09:42:14 14.8 C 7.35 g/m*3 14.8 C 0 km/h
650 19-06-2004 09:54:14 14 C 7 g/m*3 14 C 0 km/h
Sensor: Nr:Datum:Temp:Abs-Feuchte:Windchill:Wind:
Aussen-T/F 651 19-06-2004 10:06:14 13.3 C 7.74 g/m*3 13.3 C 0 km/h
652 19-06-2004 10:18:14 11.4 C 8.21 g/m*3 11.4 C 0 km/h
653 19-06-2004 10:30:14 11.2 C 8.62 g/m*3 11.2 C 0 km/h
654 19-06-2004 10:42:14 12.5 C 9.46 g/m*3 12.5 C 0 km/h
655 19-06-2004 10:54:14 13.4 C 9.42 g/m*3 13.4 C 0 km/h
656 19-06-2004 11:06:14 13.5 C 9.12 g/m*3 13.5 C 0 km/h
657 19-06-2004 11:18:14 14.5 C 9.08 g/m*3 14.5 C 0 km/h
658 19-06-2004 11:30:14 15.3 C 9.14 g/m*3 15.3 C 0 km/h
659 19-06-2004 11:42:14 16.3 C 9.02 g/m*3 16.3 C 0 km/h
660 19-06-2004 11:54:14 16.5 C 8.57 g/m*3 16.5 C 0 km/h
661 19-06-2004 12:06:14 16.4 C 8.23 g/m*3 16.4 C 0 km/h
662 19-06-2004 12:18:14 17.3 C 7.81 g/m*3 17.3 C 0 km/h
663 19-06-2004 12:30:14 17.1 C 7.42 g/m*3 17.1 C 0 km/h
664 19-06-2004 12:42:15 15.4 C 8.01 g/m*3 15.4 C 0 km/h
665 19-06-2004 12:54:15 12.4 C 8.52 g/m*3 12.4 C 0 km/h
666 19-06-2004 13:06:15 11.4 C 8.62 g/m*3 11.4 C 0 km/h
667 19-06-2004 13:18:15 11.7 C 9.31 g/m*3 11.7 C 0 km/h
668 19-06-2004 13:30:15 12.1 C 9.33 g/m*3 12.1 C 0 km/h
669 19-06-2004 13:42:15 12.4 C 9.18 g/m*3 12.4 C 0 km/h
670 19-06-2004 13:54:15 12.8 C 8.85 g/m*3 12.8 C 0 km/h
671 19-06-2004 14:06:15 13.3 C 9.01 g/m*3 13.3 C 0 km/h
672 19-06-2004 14:18:15 12.5 C 8.69 g/m*3 12.5 C 0 km/h
673 19-06-2004 14:30:15 12.6 C 9.18 g/m*3 12.6 C 0 km/h
674 19-06-2004 14:42:15 12.7 C 9.13 g/m*3 12.7 C 0 km/h
675 19-06-2004 14:54:15 13.4 C 9.3 g/m*3 13.4 C 0 km/h
Sensor: Nr:Datum:Temp:Abs-Feuchte:Windchill:Wind:
Aussen-T/F 676 19-06-2004 15:06:15 14.2 C 9.04 g/m*3 14.2 C 0 km/h
677 19-06-2004 15:18:15 15 C 9.23 g/m*3 15 C 0 km/h
678 19-06-2004 15:30:15 14.5 C 8.33 g/m*3 14.5 C 0 km/h
679 19-06-2004 15:42:15 12.4 C 8.09 g/m*3 12.4 C 0 km/h
680 19-06-2004 15:54:16 13.1 C 8.9 g/m*3 13.1 C 0 km/h
681 19-06-2004 16:06:16 14.5 C 9.08 g/m*3 14.5 C 0 km/h
682 19-06-2004 16:18:16 15.6 C 8.38 g/m*3 15.6 C 0 km/h
683 19-06-2004 16:30:16 15.8 C 7.94 g/m*3 15.8 C 0 km/h
684 19-06-2004 16:42:16 16.1 C 7.81 g/m*3 16.1 C 0 km/h
685 19-06-2004 16:54:16 16 C 8.04 g/m*3 16 C 0 km/h
686 19-06-2004 17:06:17 16.6 C 7.63 g/m*3 16.6 C 0 km/h
687 19-06-2004 17:18:17 18.3 C 7.97 g/m*3 18.3 C 0 km/h
688 19-06-2004 17:30:17 18 C 7.53 g/m*3 18 C 0 km/h
689 19-06-2004 17:42:17 18 C 7.68 g/m*3 18 C 0 km/h
690 19-06-2004 17:54:17 19.5 C 7.72 g/m*3 19.5 C 0 km/h
691 19-06-2004 18:06:17 21.2 C 7.6 g/m*3 21.2 C 0 km/h
692 19-06-2004 18:18:17 19.3 C 6.63 g/m*3 19.3 C 0 km/h
693 19-06-2004 18:30:17 19.5 C 7.22 g/m*3 19.5 C 0 km/h
694 19-06-2004 18:42:17 18.6 C 6.37 g/m*3 18.6 C 0 km/h
695 19-06-2004 18:54:17 18.7 C 7.36 g/m*3 18.7 C 0 km/h
696 19-06-2004 19:06:17 18.7 C 6.4 g/m*3 18.7 C 0 km/h
697 19-06-2004 19:18:17 19.3 C 6.3 g/m*3 19.3 C 0 km/h
698 19-06-2004 19:30:17 19.9 C 6.36 g/m*3 19.9 C 0 km/h
699 19-06-2004 19:42:17 20.3 C 6.16 g/m*3 20.3 C 0 km/h
700 19-06-2004 19:54:17 19.2 C 5.77 g/m*3 19.2 C 0 km/h
Sensor: Nr:Datum:Temp:Abs-Feuchte:Windchill:Wind:
Aussen-T/F 701 19-06-2004 20:06:17 18.5 C 6.01 g/m*3 18.5 C 0 km/h
702 19-06-2004 20:18:17 17.2 C 5.86 g/m*3 17.2 C 0 km/h
703 19-06-2004 20:30:17 16.5 C 6.46 g/m*3 16.5 C 0 km/h
704 19-06-2004 20:42:17 16.1 C 6.85 g/m*3 16.1 C 0 km/h
705 19-06-2004 20:54:17 15.9 C 7.45 g/m*3 15.9 C 0 km/h
706 19-06-2004 21:06:17 15.6 C 7.05 g/m*3 15.6 C 0 km/h
707 19-06-2004 21:18:18 15.5 C 7.53 g/m*3 15.5 C 0 km/h
708 19-06-2004 21:30:18 14.3 C 7.37 g/m*3 14.3 C 0 km/h
709 19-06-2004 21:42:18 13.5 C 7.6 g/m*3 13.5 C 0 km/h
710 19-06-2004 21:54:18 12.8 C 7.39 g/m*3 12.8 C 0 km/h
711 19-06-2004 22:06:18 12.2 C 7.23 g/m*3 12.2 C 0 km/h
712 19-06-2004 22:18:18 11.8 C 7.37 g/m*3 11.8 C 0 km/h
713 19-06-2004 22:30:18 11.7 C 7.43 g/m*3 11.7 C 0 km/h
714 19-06-2004 22:42:18 11.7 C 7.53 g/m*3 11.7 C 0 km/h
715 19-06-2004 22:54:18 11.5 C 7.54 g/m*3 11.5 C 0 km/h
716 19-06-2004 23:06:18 11.3 C 7.55 g/m*3 11.3 C 0 km/h
717 19-06-2004 23:18:18 11 C 7.41 g/m*3 11 C 0 km/h
718 19-06-2004 23:30:18 10.9 C 7.46 g/m*3 10.9 C 0 km/h
719 19-06-2004 23:42:18 10.8 C 7.41 g/m*3 10.8 C 0 km/h
720 19-06-2004 23:54:18 10.4 C 7.42 g/m*3 10.4 C 0 km/h
721 20-06-2004 00:06:18 10.1 C 7.38 g/m*3 10.1 C 0 km/h
722 20-06-2004 00:18:18 10.1 C 7.38 g/m*3 10.1 C 0 km/h
723 20-06-2004 00:30:18 9.8 C 7.42 g/m*3 9.8 C 0 km/h
724 20-06-2004 00:42:18 9.6 C 7.42 g/m*3 9.6 C 0 km/h
725 20-06-2004 00:54:18 9.5 C 7.37 g/m*3 9.5 C 0 km/h
Sensor: Nr:Datum:Temp:Abs-Feuchte:Windchill:Wind:
Aussen-T/F 726 20-06-2004 01:06:18 9.4 C 7.42 g/m*3 9.4 C 0 km/h
727 20-06-2004 01:18:18 9.4 C 7.42 g/m*3 9.4 C 0 km/h
728 20-06-2004 01:30:18 9.4 C 7.51 g/m*3 9.4 C 0 km/h
729 20-06-2004 01:42:19 9.6 C 7.51 g/m*3 9.6 C 0 km/h
730 20-06-2004 01:54:19 9.4 C 7.51 g/m*3 9.4 C 0 km/h
731 20-06-2004 02:06:19 9.3 C 7.46 g/m*3 9.3 C 0 km/h
732 20-06-2004 02:18:19 9 C 7.32 g/m*3 9 C 0 km/h
733 20-06-2004 02:30:19 8.9 C 7.45 g/m*3 8.9 C 0 km/h
734 20-06-2004 02:42:19 8.7 C 7.35 g/m*3 8.7 C 0 km/h
735 20-06-2004 02:54:19 8.5 C 7.26 g/m*3 8.5 C 0 km/h
736 20-06-2004 03:06:19 8.2 C 7.2 g/m*3 8.2 C 0 km/h
737 20-06-2004 03:18:20 8.1 C 7.16 g/m*3 8.1 C 0 km/h
738 20-06-2004 03:30:20 7.9 C 7.15 g/m*3 7.9 C 0 km/h
739 20-06-2004 03:42:20 7.8 C 7.1 g/m*3 7.8 C 0 km/h
740 20-06-2004 03:54:20 7.5 C 7.04 g/m*3 7.5 C 0 km/h
741 20-06-2004 04:06:20 7.5 C 7.12 g/m*3 7.5 C 0 km/h
742 20-06-2004 04:18:20 7.4 C 7.08 g/m*3 7.4 C 0 km/h
743 20-06-2004 04:30:21 7.3 C 7.03 g/m*3 7.3 C 0 km/h
744 20-06-2004 04:42:21 7.2 C 6.91 g/m*3 7.2 C 0 km/h
745 20-06-2004 04:54:21 7.1 C 6.86 g/m*3 7.1 C 0 km/h
746 20-06-2004 05:06:21 7 C 6.82 g/m*3 7 C 0 km/h
747 20-06-2004 05:18:21 7 C 6.9 g/m*3 7 C 0 km/h
748 20-06-2004 05:30:21 6.9 C 6.93 g/m*3 6.9 C 0 km/h
749 20-06-2004 05:42:22 7 C 6.97 g/m*3 7 C 0 km/h
750 20-06-2004 05:54:22 7.2 C 7.14 g/m*3 7.2 C 0 km/h
Sensor: Nr:Datum:Temp:Abs-Feuchte:Windchill:Wind:
Aussen-T/F 751 20-06-2004 06:06:22 7.4 C 7.24 g/m*3 7.4 C 0 km/h
752 20-06-2004 06:18:22 7.1 C 7.1 g/m*3 7.1 C 0 km/h
753 20-06-2004 06:30:22 7.1 C 7.1 g/m*3 7.1 C 0 km/h
754 20-06-2004 06:42:22 7.3 C 7.27 g/m*3 7.3 C 0 km/h
755 20-06-2004 06:54:23 7.4 C 7.24 g/m*3 7.4 C 0 km/h
756 20-06-2004 07:06:23 7.8 C 7.43 g/m*3 7.8 C 0 km/h
757 20-06-2004 07:18:23 7.9 C 7.31 g/m*3 7.9 C 0 km/h
758 20-06-2004 07:30:23 8.3 C 7.42 g/m*3 8.3 C 0 km/h
759 20-06-2004 07:42:23 8.7 C 7.44 g/m*3 8.7 C 0 km/h
760 20-06-2004 07:54:23 8.4 C 7.21 g/m*3 8.4 C 0 km/h
761 20-06-2004 08:06:24 8.6 C 7.48 g/m*3 8.6 C 0 km/h
762 20-06-2004 08:18:24 9.2 C 7.59 g/m*3 9.2 C 0 km/h
763 20-06-2004 08:30:24 9.6 C 7.69 g/m*3 9.6 C 0 km/h
764 20-06-2004 08:42:24 9.5 C 7.55 g/m*3 9.5 C 0 km/h
765 20-06-2004 08:54:24 9.6 C 7.69 g/m*3 9.6 C 0 km/h
766 20-06-2004 09:06:24 10.1 C 7.85 g/m*3 10.1 C 0 km/h
767 20-06-2004 09:18:25 10.5 C 7.86 g/m*3 10.5 C 0 km/h
768 20-06-2004 09:30:25 11.1 C 8.06 g/m*3 11.1 C 0 km/h
769 20-06-2004 09:42:25 11.8 C 8.21 g/m*3 11.8 C 0 km/h
770 20-06-2004 09:54:25 12.5 C 8.14 g/m*3 12.5 C 0 km/h
771 20-06-2004 10:06:25 13.2 C 8.38 g/m*3 13.2 C 0 km/h
772 20-06-2004 10:19:13 13.9 C 8.03 g/m*3 13.9 C 0 km/h
773 20-06-2004 10:31:13 14.6 C 7.63 g/m*3 14.6 C 0 km/h
774 20-06-2004 10:43:13 15.2 C 7.66 g/m*3 15.2 C 0 km/h
775 20-06-2004 10:55:13 15.8 C 7.13 g/m*3 15.8 C 0 km/h
Sensor: Nr:Datum:Temp:Abs-Feuchte:Windchill:Wind:
Aussen-T/F 776 20-06-2004 11:07:14 16 C 7.36 g/m*3 16 C 0 km/h
777 20-06-2004 11:19:14 16.6 C 7.2 g/m*3 16.6 C 0 km/h
778 20-06-2004 11:31:14 17.1 C 6.7 g/m*3 17.1 C 0 km/h
779 20-06-2004 11:43:14 17.3 C 6.33 g/m*3 17.3 C 0 km/h
780 20-06-2004 11:55:14 18.1 C 6.18 g/m*3 18.1 C 0 km/h
781 20-06-2004 12:07:14 18.9 C 6.16 g/m*3 18.9 C 0 km/h
782 20-06-2004 12:19:14 18.5 C 6.01 g/m*3 18.5 C 0 km/h
783 20-06-2004 12:31:14 19.5 C 6.04 g/m*3 19.5 C 0 km/h
784 20-06-2004 12:43:14 18.1 C 5.1 g/m*3 18.1 C 0 km/h
785 20-06-2004 12:55:14 18.7 C 5.6 g/m*3 18.7 C 0 km/h
786 20-06-2004 13:07:14 18.9 C 4.86 g/m*3 18.9 C 0 km/h
787 20-06-2004 13:19:14 20.1 C 4.52 g/m*3 20.1 C 0 km/h
788 20-06-2004 13:31:14 19.5 C 4.2 g/m*3 19.5 C 0 km/h
789 20-06-2004 13:43:14 20.6 C 3.94 g/m*3 20.6 C 0 km/h
790 20-06-2004 13:55:14 20.9 C 3.64 g/m*3 20.9 C 0 km/h
791 20-06-2004 14:07:14 20 C 3.46 g/m*3 20 C 0 km/h
792 20-06-2004 14:19:14 20.4 C 4.07 g/m*3 20.4 C 0 km/h
793 20-06-2004 14:31:14 21.1 C 3.87 g/m*3 21.1 C 0 km/h
794 20-06-2004 14:43:14 21.3 C 4.66 g/m*3 21.3 C 0 km/h
795 20-06-2004 14:55:14 20.9 C 4.37 g/m*3 20.9 C 0 km/h
796 20-06-2004 15:07:14 21.7 C 4.58 g/m*3 21.7 C 0 km/h
797 20-06-2004 15:19:14 21 C 5.5 g/m*3 21 C 0 km/h
798 20-06-2004 15:31:15 22 C 6.02 g/m*3 22 C 0 km/h
799 20-06-2004 15:43:15 21.9 C 5.79 g/m*3 21.9 C 0 km/h
800 20-06-2004 15:55:15 21.3 C 5.22 g/m*3 21.3 C 0 km/h
Sensor: Nr:Datum:Temp:Abs-Feuchte:Windchill:Wind:
Aussen-T/F 801 20-06-2004 16:07:15 22.8 C 5.08 g/m*3 22.8 C 0 km/h
802 20-06-2004 16:19:15 22.3 C 4.94 g/m*3 22.3 C 0 km/h
803 20-06-2004 16:31:15 21.5 C 4.9 g/m*3 21.5 C 0 km/h
804 20-06-2004 16:43:15 22.5 C 4.99 g/m*3 22.5 C 0 km/h
805 20-06-2004 16:55:15 22.9 C 4.5 g/m*3 22.9 C 0 km/h
806 20-06-2004 17:07:16 23.3 C 4.18 g/m*3 23.3 C 0 km/h
807 20-06-2004 17:19:16 23 C 4.11 g/m*3 23 C 0 km/h
808 20-06-2004 17:31:16 22.7 C 6.06 g/m*3 22.7 C 0 km/h
809 20-06-2004 17:43:16 22.5 C 5.59 g/m*3 22.5 C 0 km/h
810 20-06-2004 17:55:16 23.2 C 6.03 g/m*3 23.2 C 0 km/h
811 20-06-2004 18:07:16 21.6 C 6.26 g/m*3 21.6 C 0 km/h
812 20-06-2004 18:19:16 21.6 C 6.07 g/m*3 21.6 C 0 km/h
813 20-06-2004 18:31:16 22 C 6.02 g/m*3 22 C 0 km/h
814 20-06-2004 18:43:16 22 C 5.63 g/m*3 22 C 0 km/h
815 20-06-2004 18:55:16 22.6 C 5.62 g/m*3 22.6 C 0 km/h
816 20-06-2004 19:07:16 21.6 C 5.88 g/m*3 21.6 C 0 km/h
817 20-06-2004 19:19:16 21.1 C 6.26 g/m*3 21.1 C 0 km/h
818 20-06-2004 19:31:16 21.1 C 6.63 g/m*3 21.1 C 0 km/h
819 20-06-2004 19:43:16 21.3 C 6.71 g/m*3 21.3 C 0 km/h
820 20-06-2004 19:55:16 20.9 C 7.1 g/m*3 20.9 C 0 km/h
821 20-06-2004 20:07:16 19.1 C 6.56 g/m*3 19.1 C 0 km/h
822 20-06-2004 20:19:16 19.1 C 6.88 g/m*3 19.1 C 0 km/h
823 20-06-2004 20:31:16 18.9 C 7.13 g/m*3 18.9 C 0 km/h
824 20-06-2004 20:43:16 18.1 C 6.8 g/m*3 18.1 C 0 km/h
825 20-06-2004 20:55:16 17.7 C 6.94 g/m*3 17.7 C 0 km/h
Sensor: Nr:Datum:Temp:Abs-Feuchte:Windchill:Wind:
Aussen-T/F 826 20-06-2004 21:07:17 17.6 C 7.05 g/m*3 17.6 C 0 km/h
827 20-06-2004 21:19:17 16.9 C 6.9 g/m*3 16.9 C 0 km/h
828 20-06-2004 21:31:17 16.4 C 7.12 g/m*3 16.4 C 0 km/h
829 20-06-2004 21:43:17 15.3 C 7.05 g/m*3 15.3 C 0 km/h
830 20-06-2004 21:55:17 14.8 C 7.22 g/m*3 14.8 C 0 km/h
831 20-06-2004 22:07:17 14.5 C 7.09 g/m*3 14.5 C 0 km/h
832 20-06-2004 22:19:17 14.5 C 7.21 g/m*3 14.5 C 0 km/h
833 20-06-2004 22:31:17 14.5 C 7.46 g/m*3 14.5 C 0 km/h
834 20-06-2004 22:43:17 14.2 C 7.33 g/m*3 14.2 C 0 km/h
835 20-06-2004 22:55:17 13.8 C 7.39 g/m*3 13.8 C 0 km/h
836 20-06-2004 23:07:17 13.4 C 7.32 g/m*3 13.4 C 0 km/h
837 20-06-2004 23:19:17 13.7 C 7.46 g/m*3 13.7 C 0 km/h
838 20-06-2004 23:31:17 13.8 C 7.86 g/m*3 13.8 C 0 km/h
839 20-06-2004 23:43:17 12.4 C 8.63 g/m*3 12.4 C 0 km/h
840 20-06-2004 23:55:17 11.9 C 8.79 g/m*3 11.9 C 0 km/h
841 21-06-2004 00:07:17 12.1 C 8.79 g/m*3 12.1 C 0 km/h
842 21-06-2004 00:19:17 12 C 8.63 g/m*3 12 C 0 km/h
843 21-06-2004 00:31:17 11.6 C 8.32 g/m*3 11.6 C 0 km/h
844 21-06-2004 00:43:17 11.4 C 8.31 g/m*3 11.4 C 0 km/h
845 21-06-2004 00:55:17 11.5 C 8.37 g/m*3 11.5 C 0 km/h
846 21-06-2004 01:07:17 11.1 C 8.06 g/m*3 11.1 C 0 km/h
847 21-06-2004 01:19:17 11.2 C 8.21 g/m*3 11.2 C 0 km/h
848 21-06-2004 01:31:17 11.3 C 8.26 g/m*3 11.3 C 0 km/h
849 21-06-2004 01:43:18 11.1 C 8.16 g/m*3 11.1 C 0 km/h
850 21-06-2004 01:55:18 11 C 8.11 g/m*3 11 C 0 km/h
Sensor: Nr:Datum:Temp:Abs-Feuchte:Windchill:Wind:
Aussen-T/F 851 21-06-2004 02:07:18 10.9 C 8.16 g/m*3 10.9 C 0 km/h
852 21-06-2004 02:19:18 10.8 C 8.2 g/m*3 10.8 C 0 km/h
853 21-06-2004 02:31:18 10.7 C 8.15 g/m*3 10.7 C 0 km/h
854 21-06-2004 02:43:18 10.6 C 8.1 g/m*3 10.6 C 0 km/h
855 21-06-2004 02:55:18 10.6 C 8.1 g/m*3 10.6 C 0 km/h
856 21-06-2004 03:07:18 10.5 C 8.05 g/m*3 10.5 C 0 km/h
857 21-06-2004 03:19:18 10.3 C 7.95 g/m*3 10.3 C 0 km/h
858 21-06-2004 03:31:18 10.4 C 8.1 g/m*3 10.4 C 0 km/h
859 21-06-2004 03:43:18 10.3 C 8.04 g/m*3 10.3 C 0 km/h
860 21-06-2004 03:55:18 10.1 C 7.94 g/m*3 10.1 C 0 km/h
861 21-06-2004 04:07:18 10.2 C 7.99 g/m*3 10.2 C 0 km/h
862 21-06-2004 04:19:18 10.1 C 7.94 g/m*3 10.1 C 0 km/h
863 21-06-2004 04:31:18 10.1 C 7.94 g/m*3 10.1 C 0 km/h
864 21-06-2004 04:43:18 10 C 7.89 g/m*3 10 C 0 km/h
865 21-06-2004 04:55:18 10 C 7.89 g/m*3 10 C 0 km/h
866 21-06-2004 05:07:18 9.9 C 7.94 g/m*3 9.9 C 0 km/h
867 21-06-2004 05:19:18 9.8 C 7.89 g/m*3 9.8 C 0 km/h
868 21-06-2004 05:31:18 9.8 C 7.98 g/m*3 9.8 C 0 km/h
869 21-06-2004 05:43:18 9.8 C 7.89 g/m*3 9.8 C 0 km/h
870 21-06-2004 05:55:18 9.7 C 7.84 g/m*3 9.7 C 0 km/h
871 21-06-2004 06:07:19 9.6 C 7.88 g/m*3 9.6 C 0 km/h
872 21-06-2004 06:19:19 9.7 C 7.93 g/m*3 9.7 C 0 km/h
873 21-06-2004 06:31:19 9.9 C 8.03 g/m*3 9.9 C 0 km/h
874 21-06-2004 06:43:19 10 C 7.89 g/m*3 10 C 0 km/h
875 21-06-2004 06:55:19 10.4 C 8.29 g/m*3 10.4 C 0 km/h
Sensor: Nr:Datum:Temp:Abs-Feuchte:Windchill:Wind:
Aussen-T/F 876 21-06-2004 07:07:19 10.8 C 8.4 g/m*3 10.8 C 0 km/h
877 21-06-2004 07:19:19 11.3 C 8.47 g/m*3 11.3 C 0 km/h
878 21-06-2004 07:31:19 11.7 C 8.26 g/m*3 11.7 C 0 km/h
879 21-06-2004 07:43:19 11.8 C 8 g/m*3 11.8 C 0 km/h
880 21-06-2004 07:55:19 12 C 7.89 g/m*3 12 C 0 km/h
881 21-06-2004 08:07:19 12.1 C 8.04 g/m*3 12.1 C 0 km/h
882 21-06-2004 08:19:19 12.4 C 8.09 g/m*3 12.4 C 0 km/h
883 21-06-2004 08:31:19 13.1 C 8.22 g/m*3 13.1 C 0 km/h
884 21-06-2004 08:43:19 13.2 C 8.15 g/m*3 13.2 C 0 km/h
885 21-06-2004 08:55:19 13.1 C 8.44 g/m*3 13.1 C 0 km/h
886 21-06-2004 09:07:19 13.2 C 7.69 g/m*3 13.2 C 0 km/h
887 21-06-2004 09:19:20 14 C 7.48 g/m*3 14 C 0 km/h
888 21-06-2004 09:31:20 14.7 C 7.43 g/m*3 14.7 C 0 km/h
889 21-06-2004 09:43:20 15.5 C 7.27 g/m*3 15.5 C 0 km/h
890 21-06-2004 09:55:20 14.1 C 7.65 g/m*3 14.1 C 0 km/h
891 21-06-2004 10:07:20 13.7 C 8.05 g/m*3 13.7 C 0 km/h
892 21-06-2004 10:19:20 13.9 C 8.27 g/m*3 13.9 C 0 km/h
893 21-06-2004 10:31:21 14.9 C 8.03 g/m*3 14.9 C 0 km/h
894 21-06-2004 10:43:21 15.8 C 7.67 g/m*3 15.8 C 0 km/h
895 21-06-2004 10:55:21 16.6 C 8.05 g/m*3 16.6 C 0 km/h
896 21-06-2004 11:07:26 17.3 C 7.51 g/m*3 17.3 C 0 km/h
897 21-06-2004 11:19:01 16.5 C 6.88 g/m*3 16.5 C 0 km/h
898 21-06-2004 11:31:01 17.1 C 7.13 g/m*3 17.1 C 0 km/h
899 21-06-2004 11:43:01 17.2 C 6.88 g/m*3 17.2 C 0 km/h
900 21-06-2004 11:55:02 17.6 C 6.9 g/m*3 17.6 C 0 km/h
Sensor: Nr:Datum:Temp:Abs-Feuchte:Windchill:Wind:
Aussen-T/F 901 21-06-2004 12:07:02 17.5 C 6.71 g/m*3 17.5 C 0 km/h
902 21-06-2004 12:19:02 17.8 C 6.98 g/m*3 17.8 C 0 km/h
903 21-06-2004 12:31:02 18.3 C 7.19 g/m*3 18.3 C 0 km/h
904 21-06-2004 12:43:02 17.9 C 6.87 g/m*3 17.9 C 0 km/h
905 21-06-2004 12:55:01 17.4 C 6.82 g/m*3 17.4 C 0 km/h
906 21-06-2004 13:07:01 18.5 C 6.96 g/m*3 18.5 C 0 km/h
907 21-06-2004 13:19:01 18.3 C 6.88 g/m*3 18.3 C 0 km/h
908 21-06-2004 13:31:00 17.5 C 6.11 g/m*3 17.5 C 0 km/h
909 21-06-2004 13:43:00 14.9 C 8.54 g/m*3 14.9 C 0 km/h
910 21-06-2004 13:55:01 15.3 C 8.62 g/m*3 15.3 C 0 km/h
911 21-06-2004 14:07:01 17.7 C 8.9 g/m*3 17.7 C 0 km/h
912 21-06-2004 14:19:01 16.2 C 8.14 g/m*3 16.2 C 0 km/h
913 21-06-2004 14:31:01 16.7 C 8.24 g/m*3 16.7 C 0 km/h
914 21-06-2004 14:43:01 18.3 C 8.13 g/m*3 18.3 C 0 km/h
915 21-06-2004 14:55:01 18.2 C 7.62 g/m*3 18.2 C 0 km/h
916 21-06-2004 15:07:01 18.8 C 7.57 g/m*3 18.8 C 0 km/h
917 21-06-2004 15:19:01 19.8 C 7.17 g/m*3 19.8 C 0 km/h
918 21-06-2004 15:31:01 19.9 C 7.22 g/m*3 19.9 C 0 km/h
919 21-06-2004 15:43:01 20.2 C 6.99 g/m*3 20.2 C 0 km/h
920 21-06-2004 15:55:01 20.6 C 6.62 g/m*3 20.6 C 0 km/h
921 21-06-2004 16:07:01 21 C 6.59 g/m*3 21 C 0 km/h
922 21-06-2004 16:19:01 21.3 C 6.9 g/m*3 21.3 C 0 km/h
923 21-06-2004 16:31:01 17.9 C 6.11 g/m*3 17.9 C 0 km/h
924 21-06-2004 16:43:01 16.7 C 7.11 g/m*3 16.7 C 0 km/h
925 21-06-2004 16:55:01 17.3 C 7.22 g/m*3 17.3 C 0 km/h
Sensor: Nr:Datum:Temp:Abs-Feuchte:Windchill:Wind:
Aussen-T/F 926 21-06-2004 17:07:00 18.3 C 6.72 g/m*3 18.3 C 0 km/h
927 21-06-2004 17:19:01 18.7 C 7.36 g/m*3 18.7 C 0 km/h
928 21-06-2004 17:31:02 19.3 C 7.46 g/m*3 19.3 C 0 km/h
929 21-06-2004 17:43:02 20.2 C 7.34 g/m*3 20.2 C 0 km/h
930 21-06-2004 17:55:02 19.3 C 6.97 g/m*3 19.3 C 0 km/h
931 21-06-2004 18:07:03 19.1 C 6.72 g/m*3 19.1 C 0 km/h
932 21-06-2004 18:19:02 19.7 C 6.96 g/m*3 19.7 C 0 km/h
933 21-06-2004 18:31:02 20 C 7.26 g/m*3 20 C 0 km/h
934 21-06-2004 18:43:02 20.2 C 7.17 g/m*3 20.2 C 0 km/h
935 21-06-2004 18:55:04 20.2 C 6.99 g/m*3 20.2 C 0 km/h
936 21-06-2004 19:07:04 20.8 C 6.88 g/m*3 20.8 C 0 km/h
937 21-06-2004 19:19:04 20.4 C 6.9 g/m*3 20.4 C 0 km/h
938 21-06-2004 19:31:04 20.9 C 7.29 g/m*3 20.9 C 0 km/h
939 21-06-2004 19:43:04 20.7 C 7.2 g/m*3 20.7 C 0 km/h
940 21-06-2004 19:55:01 20.6 C 7.34 g/m*3 20.6 C 0 km/h
941 21-06-2004 20:07:02 20.1 C 7.3 g/m*3 20.1 C 0 km/h
942 21-06-2004 20:19:02 19.7 C 7.64 g/m*3 19.7 C 0 km/h
943 21-06-2004 20:31:02 19.2 C 7.75 g/m*3 19.2 C 0 km/h
944 21-06-2004 20:43:02 19 C 7.82 g/m*3 19 C 0 km/h
945 21-06-2004 20:55:01 18.3 C 7.66 g/m*3 18.3 C 0 km/h
946 21-06-2004 21:07:01 17.4 C 7.56 g/m*3 17.4 C 0 km/h
947 21-06-2004 21:19:01 16.8 C 8.01 g/m*3 16.8 C 0 km/h
948 21-06-2004 21:31:01 16.3 C 8.19 g/m*3 16.3 C 0 km/h
949 21-06-2004 21:43:01 15.4 C 7.88 g/m*3 15.4 C 0 km/h
950 21-06-2004 21:55:01 14.9 C 7.9 g/m*3 14.9 C 0 km/h
Sensor: Nr:Datum:Temp:Abs-Feuchte:Windchill:Wind:
Aussen-T/F 951 21-06-2004 22:07:01 14.5 C 7.84 g/m*3 14.5 C 0 km/h
952 21-06-2004 22:19:01 14.2 C 7.94 g/m*3 14.2 C 0 km/h
953 21-06-2004 22:31:01 14 C 7.96 g/m*3 14 C 0 km/h
954 21-06-2004 22:43:01 13.6 C 7.89 g/m*3 13.6 C 0 km/h
955 21-06-2004 22:55:01 13.5 C 7.95 g/m*3 13.5 C 0 km/h
956 21-06-2004 23:07:01 13.5 C 8.07 g/m*3 13.5 C 0 km/h
957 21-06-2004 23:19:01 13.4 C 8.14 g/m*3 13.4 C 0 km/h
958 21-06-2004 23:31:01 13.3 C 8.2 g/m*3 13.3 C 0 km/h
959 21-06-2004 23:43:01 13.3 C 8.2 g/m*3 13.3 C 0 km/h
960 21-06-2004 23:55:01 13.5 C 8.3 g/m*3 13.5 C 0 km/h
961 22-06-2004 00:07:01 13.5 C 8.3 g/m*3 13.5 C 0 km/h
962 22-06-2004 00:20:00 13.1 C 8.22 g/m*3 13.1 C 0 km/h
963 22-06-2004 00:32:00 13.2 C 8.27 g/m*3 13.2 C 0 km/h
964 22-06-2004 00:44:00 12.9 C 8.34 g/m*3 12.9 C 0 km/h
965 22-06-2004 00:56:00 12.9 C 8.34 g/m*3 12.9 C 0 km/h
966 22-06-2004 01:08:01 13 C 8.28 g/m*3 13 C 0 km/h
967 22-06-2004 01:20:01 12.8 C 8.29 g/m*3 12.8 C 0 km/h
968 22-06-2004 01:32:01 12.8 C 8.4 g/m*3 12.8 C 0 km/h
969 22-06-2004 01:44:01 12.7 C 8.35 g/m*3 12.7 C 0 km/h
970 22-06-2004 01:56:01 12.6 C 8.52 g/m*3 12.6 C 0 km/h
971 22-06-2004 02:08:01 12.5 C 8.47 g/m*3 12.5 C 0 km/h
972 22-06-2004 02:20:02 12.6 C 8.19 g/m*3 12.6 C 0 km/h
973 22-06-2004 02:32:02 12.3 C 8.58 g/m*3 12.3 C 0 km/h
974 22-06-2004 02:44:02 12.2 C 8.42 g/m*3 12.2 C 0 km/h
975 22-06-2004 02:56:02 12.3 C 8.47 g/m*3 12.3 C 0 km/h
Sensor: Nr:Datum:Temp:Abs-Feuchte:Windchill:Wind:
Aussen-T/F 976 22-06-2004 03:08:02 12.3 C 8.36 g/m*3 12.3 C 0 km/h
977 22-06-2004 03:20:02 12.2 C 8.42 g/m*3 12.2 C 0 km/h
978 22-06-2004 03:32:03 12.2 C 8.42 g/m*3 12.2 C 0 km/h
979 22-06-2004 03:44:03 12.3 C 8.69 g/m*3 12.3 C 0 km/h
980 22-06-2004 03:56:03 12.1 C 8.79 g/m*3 12.1 C 0 km/h
981 22-06-2004 04:08:03 12 C 8.95 g/m*3 12 C 0 km/h
982 22-06-2004 04:20:03 12 C 8.95 g/m*3 12 C 0 km/h
983 22-06-2004 04:32:03 11.9 C 9 g/m*3 11.9 C 0 km/h
984 22-06-2004 04:44:04 11.9 C 9.11 g/m*3 11.9 C 0 km/h
985 22-06-2004 04:56:04 11.8 C 9.05 g/m*3 11.8 C 0 km/h
986 22-06-2004 05:08:04 11.9 C 9.11 g/m*3 11.9 C 0 km/h
987 22-06-2004 05:20:04 12 C 9.06 g/m*3 12 C 0 km/h
988 22-06-2004 05:32:04 12.1 C 9.12 g/m*3 12.1 C 0 km/h
989 22-06-2004 05:44:04 12.2 C 9.17 g/m*3 12.2 C 0 km/h
990 22-06-2004 05:56:04 12.1 C 9.12 g/m*3 12.1 C 0 km/h
991 22-06-2004 06:08:04 12.2 C 9.28 g/m*3 12.2 C 0 km/h
992 22-06-2004 06:20:04 12.2 C 9.39 g/m*3 12.2 C 0 km/h
993 22-06-2004 06:32:04 12.1 C 9.22 g/m*3 12.1 C 0 km/h
994 22-06-2004 06:44:04 12 C 9.27 g/m*3 12 C 0 km/h
995 22-06-2004 06:56:04 12.1 C 9.33 g/m*3 12.1 C 0 km/h
996 22-06-2004 07:08:04 12.2 C 9.39 g/m*3 12.2 C 0 km/h
997 22-06-2004 07:20:00 12.2 C 9.39 g/m*3 12.2 C 0 km/h
998 22-06-2004 07:32:00 12.4 C 9.51 g/m*3 12.4 C 0 km/h
999 22-06-2004 07:44:00 12.6 C 9.62 g/m*3 12.6 C 0 km/h
1000 22-06-2004 07:56:01 12.8 C 9.74 g/m*3 12.8 C 0 km/h
Sensor: Nr:Datum:Temp:Abs-Feuchte:Windchill:Wind:
Aussen-T/F 1001 22-06-2004 08:08:01 13.1 C 9.81 g/m*3 13.1 C 0 km/h
1002 22-06-2004 08:20:01 13.2 C 9.87 g/m*3 13.2 C 0 km/h
1003 22-06-2004 08:32:01 13.4 C 9.88 g/m*3 13.4 C 0 km/h
1004 22-06-2004 08:44:01 13.7 C 10.07 g/m*3 13.7 C 0 km/h
1005 22-06-2004 08:56:01 13.7 C 10.07 g/m*3 13.7 C 0 km/h
1006 22-06-2004 09:08:01 13.7 C 10.18 g/m*3 13.7 C 0 km/h
1007 22-06-2004 09:20:01 13.8 C 10.25 g/m*3 13.8 C 0 km/h
1008 22-06-2004 09:32:01 13.7 C 10.3 g/m*3 13.7 C 0 km/h
1009 22-06-2004 09:44:01 13.9 C 10.55 g/m*3 13.9 C 0 km/h
1010 22-06-2004 09:56:01 14.1 C 10.56 g/m*3 14.1 C 0 km/h
1011 22-06-2004 10:08:01 14 C 10.37 g/m*3 14 C 0 km/h
1012 22-06-2004 10:20:01 14 C 10.37 g/m*3 14 C 0 km/h
1013 22-06-2004 10:32:01 14.1 C 10.44 g/m*3 14.1 C 0 km/h
1014 22-06-2004 10:44:01 14.2 C 10.38 g/m*3 14.2 C 0 km/h
1015 22-06-2004 10:56:01 14.1 C 10.19 g/m*3 14.1 C 0 km/h
1016 22-06-2004 11:08:01 13.7 C 10.18 g/m*3 13.7 C 0 km/h
1017 22-06-2004 11:20:01 13.6 C 10.24 g/m*3 13.6 C 0 km/h
1018 22-06-2004 11:32:01 14 C 10.61 g/m*3 14 C 0 km/h
1019 22-06-2004 11:44:01 13.9 C 10.55 g/m*3 13.9 C 0 km/h
1020 22-06-2004 11:56:01 14.1 C 10.68 g/m*3 14.1 C 0 km/h
1021 22-06-2004 12:08:01 14.1 C 10.68 g/m*3 14.1 C 0 km/h
1022 22-06-2004 12:20:02 14.2 C 10.75 g/m*3 14.2 C 0 km/h
1023 22-06-2004 12:32:02 14.5 C 10.94 g/m*3 14.5 C 0 km/h
1024 22-06-2004 12:44:02 14.7 C 10.95 g/m*3 14.7 C 0 km/h
1025 22-06-2004 12:56:02 14.8 C 11.02 g/m*3 14.8 C 0 km/h
Sensor: Nr:Datum:Temp:Abs-Feuchte:Windchill:Wind:
Aussen-T/F 1026 22-06-2004 13:08:02 14.6 C 10.76 g/m*3 14.6 C 0 km/h
1027 22-06-2004 13:20:02 14.8 C 11.02 g/m*3 14.8 C 0 km/h
1028 22-06-2004 13:32:02 14.9 C 10.96 g/m*3 14.9 C 0 km/h
1029 22-06-2004 13:44:02 15.6 C 11.17 g/m*3 15.6 C 0 km/h
1030 22-06-2004 13:56:01 15.8 C 11.04 g/m*3 15.8 C 0 km/h
1031 22-06-2004 14:08:01 16 C 10.9 g/m*3 16 C 0 km/h
1032 22-06-2004 14:20:01 16.2 C 11.03 g/m*3 16.2 C 0 km/h
1033 22-06-2004 14:32:01 16.6 C 11.3 g/m*3 16.6 C 0 km/h
1034 22-06-2004 14:44:01 17 C 11.29 g/m*3 17 C 0 km/h
1035 22-06-2004 14:56:01 18.2 C 11.35 g/m*3 18.2 C 0 km/h
1036 22-06-2004 15:08:01 19.4 C 11.35 g/m*3 19.4 C 0 km/h
1037 22-06-2004 15:20:01 19.7 C 11.21 g/m*3 19.7 C 0 km/h
1038 22-06-2004 15:32:01 19.3 C 11.11 g/m*3 19.3 C 0 km/h
1039 22-06-2004 15:44:01 18.6 C 11.3 g/m*3 18.6 C 0 km/h
1040 22-06-2004 15:56:01 18.7 C 11.37 g/m*3 18.7 C 0 km/h
1041 22-06-2004 16:08:01 20.3 C 11.08 g/m*3 20.3 C 0 km/h
1042 22-06-2004 16:20:00 20.1 C 10.95 g/m*3 20.1 C 0 km/h
1043 22-06-2004 16:32:00 19.8 C 11.1 g/m*3 19.8 C 0 km/h
1044 22-06-2004 16:44:00 19.3 C 11.44 g/m*3 19.3 C 0 km/h
1045 22-06-2004 16:56:01 19.4 C 11.01 g/m*3 19.4 C 0 km/h
1046 22-06-2004 17:08:01 20.1 C 11.13 g/m*3 20.1 C 0 km/h
1047 22-06-2004 17:20:01 22.3 C 11.06 g/m*3 22.3 C 0 km/h
1048 22-06-2004 17:32:01 23.5 C 11 g/m*3 23.5 C 0 km/h
1049 22-06-2004 17:44:01 22.4 C 10.72 g/m*3 22.4 C 0 km/h
1050 22-06-2004 17:56:01 22 C 10.87 g/m*3 22 C 0 km/h
Sensor: Nr:Datum:Temp:Abs-Feuchte:Windchill:Wind:
Aussen-T/F 1051 22-06-2004 18:08:00 22.3 C 11.26 g/m*3 22.3 C 0 km/h
1052 22-06-2004 18:20:00 22.6 C 10.85 g/m*3 22.6 C 0 km/h
1053 22-06-2004 18:32:00 23.6 C 10.42 g/m*3 23.6 C 0 km/h
1054 22-06-2004 18:44:00 22.7 C 10.51 g/m*3 22.7 C 0 km/h
1055 22-06-2004 18:56:01 22.8 C 11.58 g/m*3 22.8 C 0 km/h
1056 22-06-2004 19:08:01 22 C 11.45 g/m*3 22 C 0 km/h
1057 22-06-2004 19:20:01 20.8 C 11.59 g/m*3 20.8 C 0 km/h
1058 22-06-2004 19:32:01 20.1 C 11.82 g/m*3 20.1 C 0 km/h
1059 22-06-2004 19:44:01 19.9 C 11.85 g/m*3 19.9 C 0 km/h
1060 22-06-2004 19:56:01 19.5 C 11.92 g/m*3 19.5 C 0 km/h
1061 22-06-2004 20:08:01 19.3 C 11.94 g/m*3 19.3 C 0 km/h
1062 22-06-2004 20:20:01 19.2 C 11.21 g/m*3 19.2 C 0 km/h
1063 22-06-2004 20:32:01 19 C 11.73 g/m*3 19 C 0 km/h
1064 22-06-2004 20:44:01 18.7 C 11.85 g/m*3 18.7 C 0 km/h
1065 22-06-2004 20:56:01 18.5 C 11.55 g/m*3 18.5 C 0 km/h
1066 22-06-2004 21:08:01 18.3 C 11.57 g/m*3 18.3 C 0 km/h
1067 22-06-2004 21:20:01 18.1 C 11.43 g/m*3 18.1 C 0 km/h
1068 22-06-2004 21:32:01 17.6 C 11.4 g/m*3 17.6 C 0 km/h
1069 22-06-2004 21:44:01 17.7 C 11.47 g/m*3 17.7 C 0 km/h
1070 22-06-2004 21:56:01 17.4 C 11.41 g/m*3 17.4 C 0 km/h
1071 22-06-2004 22:08:01 17 C 11.29 g/m*3 17 C 0 km/h
1072 22-06-2004 22:20:01 16.6 C 11.44 g/m*3 16.6 C 0 km/h
1073 22-06-2004 22:32:01 16.6 C 11.44 g/m*3 16.6 C 0 km/h
1074 22-06-2004 22:44:01 16.6 C 11.44 g/m*3 16.6 C 0 km/h
1075 22-06-2004 22:56:01 16.8 C 11.44 g/m*3 16.8 C 0 km/h
Sensor: Nr:Datum:Temp:Abs-Feuchte:Windchill:Wind:
Aussen-T/F 1076 22-06-2004 23:08:01 17.2 C 11.42 g/m*3 17.2 C 0 km/h
1077 22-06-2004 23:20:01 17.1 C 11.21 g/m*3 17.1 C 0 km/h
1078 22-06-2004 23:32:01 17 C 11.29 g/m*3 17 C 0 km/h
1079 22-06-2004 23:44:01 17.1 C 11.35 g/m*3 17.1 C 0 km/h
1080 22-06-2004 23:56:01 17.3 C 11.2 g/m*3 17.3 C 0 km/h
1081 23-06-2004 00:08:01 17.2 C 11.28 g/m*3 17.2 C 0 km/h
1082 23-06-2004 00:20:01 17.1 C 11.21 g/m*3 17.1 C 0 km/h
1083 23-06-2004 00:32:01 16.9 C 11.22 g/m*3 16.9 C 0 km/h
1084 23-06-2004 00:44:01 16.8 C 11.29 g/m*3 16.8 C 0 km/h
1085 23-06-2004 00:56:02 16.7 C 11.23 g/m*3 16.7 C 0 km/h
1086 23-06-2004 01:08:02 16.6 C 11.16 g/m*3 16.6 C 0 km/h
1087 23-06-2004 01:20:02 16.6 C 11.16 g/m*3 16.6 C 0 km/h
1088 23-06-2004 01:32:02 16.6 C 11.16 g/m*3 16.6 C 0 km/h
1089 23-06-2004 01:44:02 16.3 C 11.1 g/m*3 16.3 C 0 km/h
1090 23-06-2004 01:56:01 16.1 C 11.1 g/m*3 16.1 C 0 km/h
1091 23-06-2004 02:08:01 16.1 C 11.1 g/m*3 16.1 C 0 km/h
1092 23-06-2004 02:20:01 16 C 11.17 g/m*3 16 C 0 km/h
1093 23-06-2004 02:32:01 16.4 C 11.17 g/m*3 16.4 C 0 km/h
1094 23-06-2004 02:44:01 16.5 C 11.23 g/m*3 16.5 C 0 km/h
1095 23-06-2004 02:57:02 16.8 C 11.15 g/m*3 16.8 C 0 km/h
1096 23-06-2004 03:09:02 17 C 11 g/m*3 17 C 0 km/h
1097 23-06-2004 03:21:02 17.1 C 10.92 g/m*3 17.1 C 0 km/h
1098 23-06-2004 03:33:01 17.1 C 10.77 g/m*3 17.1 C 0 km/h
1099 23-06-2004 03:45:01 17.2 C 10.84 g/m*3 17.2 C 0 km/h
1100 23-06-2004 03:57:01 16.5 C 11.09 g/m*3 16.5 C 0 km/h
Sensor: Nr:Datum:Temp:Abs-Feuchte:Windchill:Wind:
Aussen-T/F 1101 23-06-2004 04:09:01 16.2 C 11.17 g/m*3 16.2 C 0 km/h
1102 23-06-2004 04:21:01 16.4 C 11.31 g/m*3 16.4 C 0 km/h
1103 23-06-2004 04:33:01 16.4 C 11.17 g/m*3 16.4 C 0 km/h
1104 23-06-2004 04:45:01 16.5 C 11.09 g/m*3 16.5 C 0 km/h
1105 23-06-2004 04:57:01 16.7 C 11.08 g/m*3 16.7 C 0 km/h
1106 23-06-2004 05:09:01 16.4 C 11.03 g/m*3 16.4 C 0 km/h
1107 23-06-2004 05:21:01 16 C 11.44 g/m*3 16 C 0 km/h
1108 23-06-2004 05:33:01 15.6 C 11.84 g/m*3 15.6 C 0 km/h
1109 23-06-2004 05:45:01 15.6 C 11.97 g/m*3 15.6 C 0 km/h
1110 23-06-2004 05:57:01 15.4 C 11.96 g/m*3 15.4 C 0 km/h
1111 23-06-2004 06:09:00 15.4 C 12.09 g/m*3 15.4 C 0 km/h
1112 23-06-2004 06:21:00 15.4 C 12.09 g/m*3 15.4 C 0 km/h
1113 23-06-2004 06:33:00 15.4 C 12.22 g/m*3 15.4 C 0 km/h
1114 23-06-2004 06:45:01 15.4 C 12.22 g/m*3 15.4 C 0 km/h
1115 23-06-2004 06:57:01 15.6 C 12.37 g/m*3 15.6 C 0 km/h
1116 23-06-2004 07:09:01 15.8 C 12.52 g/m*3 15.8 C 0 km/h
1117 23-06-2004 07:21:01 16 C 12.67 g/m*3 16 C 0 km/h
1118 23-06-2004 07:33:01 16.5 C 12.92 g/m*3 16.5 C 0 km/h
1119 23-06-2004 07:45:02 16.6 C 12.86 g/m*3 16.6 C 0 km/h
1120 23-06-2004 07:57:02 16.9 C 12.94 g/m*3 16.9 C 0 km/h
1121 23-06-2004 08:09:01 16.8 C 12.72 g/m*3 16.8 C 0 km/h
1122 23-06-2004 08:21:01 16.6 C 12.57 g/m*3 16.6 C 0 km/h
1123 23-06-2004 08:33:01 16.7 C 12.65 g/m*3 16.7 C 0 km/h
1124 23-06-2004 08:45:01 16.8 C 12.72 g/m*3 16.8 C 0 km/h
1125 23-06-2004 08:57:01 17.2 C 12.74 g/m*3 17.2 C 0 km/h
Sensor: Nr:Datum:Temp:Abs-Feuchte:Windchill:Wind:
Aussen-T/F 1126 23-06-2004 09:09:00 17.7 C 12.67 g/m*3 17.7 C 0 km/h
1127 23-06-2004 09:21:01 17.5 C 12.52 g/m*3 17.5 C 0 km/h
1128 23-06-2004 09:33:01 17.7 C 12.67 g/m*3 17.7 C 0 km/h
1129 23-06-2004 09:45:02 18.4 C 12.74 g/m*3 18.4 C 0 km/h
1130 23-06-2004 09:57:02 18.9 C 12.64 g/m*3 18.9 C 0 km/h
1131 23-06-2004 10:09:02 19.4 C 12.01 g/m*3 19.4 C 0 km/h
1132 23-06-2004 10:21:02 19.5 C 11.58 g/m*3 19.5 C 0 km/h
1133 23-06-2004 10:33:02 19.8 C 11.61 g/m*3 19.8 C 0 km/h
1134 23-06-2004 10:45:01 20.1 C 11.3 g/m*3 20.1 C 0 km/h
1135 23-06-2004 10:57:01 20.1 C 10.95 g/m*3 20.1 C 0 km/h
1136 23-06-2004 11:09:01 20.4 C 11.14 g/m*3 20.4 C 0 km/h
1137 23-06-2004 11:21:01 21.1 C 10.87 g/m*3 21.1 C 0 km/h
1138 23-06-2004 11:33:01 21.9 C 11 g/m*3 21.9 C 0 km/h
1139 23-06-2004 11:45:01 22.7 C 10.3 g/m*3 22.7 C 0 km/h
1140 23-06-2004 11:57:01 22 C 9.7 g/m*3 22 C 0 km/h
1141 23-06-2004 12:09:01 22.2 C 8.83 g/m*3 22.2 C 0 km/h
1142 23-06-2004 12:21:01 22.4 C 9.33 g/m*3 22.4 C 0 km/h
1143 23-06-2004 12:33:01 22 C 8.73 g/m*3 22 C 0 km/h
1144 23-06-2004 12:45:00 22 C 8.93 g/m*3 22 C 0 km/h
1145 23-06-2004 12:57:00 22.8 C 8.94 g/m*3 22.8 C 0 km/h
1146 23-06-2004 13:09:00 23.3 C 8.36 g/m*3 23.3 C 0 km/h
1147 23-06-2004 13:21:00 23.5 C 8.88 g/m*3 23.5 C 0 km/h
1148 23-06-2004 13:33:00 23 C 8.43 g/m*3 23 C 0 km/h
1149 23-06-2004 13:45:01 24.1 C 8.53 g/m*3 24.1 C 0 km/h
1150 23-06-2004 13:57:01 23.4 C 8.62 g/m*3 23.4 C 0 km/h
Sensor: Nr:Datum:Temp:Abs-Feuchte:Windchill:Wind:
Aussen-T/F 1151 23-06-2004 14:09:01 23.3 C 8.57 g/m*3 23.3 C 0 km/h
1152 23-06-2004 14:21:01 22.9 C 8.38 g/m*3 22.9 C 0 km/h
1153 23-06-2004 14:33:01 23.1 C 8.27 g/m*3 23.1 C 0 km/h
1154 23-06-2004 14:45:01 23.4 C 8.2 g/m*3 23.4 C 0 km/h
1155 23-06-2004 14:57:01 23.7 C 8.56 g/m*3 23.7 C 0 km/h
1156 23-06-2004 15:09:00 23.5 C 7.82 g/m*3 23.5 C 0 km/h
1157 23-06-2004 15:21:00 24.1 C 7.88 g/m*3 24.1 C 0 km/h
1158 23-06-2004 15:33:00 23.6 C 8.08 g/m*3 23.6 C 0 km/h
1159 23-06-2004 15:45:01 23.9 C 7.79 g/m*3 23.9 C 0 km/h
1160 23-06-2004 15:57:01 23.3 C 7.53 g/m*3 23.3 C 0 km/h
1161 23-06-2004 16:09:01 23.8 C 7.53 g/m*3 23.8 C 0 km/h
1162 23-06-2004 16:21:01 23.9 C 7.57 g/m*3 23.9 C 0 km/h
1163 23-06-2004 16:33:01 22.6 C 7.83 g/m*3 22.6 C 0 km/h
1164 23-06-2004 16:45:01 23.6 C 8.08 g/m*3 23.6 C 0 km/h
1165 23-06-2004 16:57:01 23 C 8.22 g/m*3 23 C 0 km/h
1166 23-06-2004 17:09:01 22.2 C 9.23 g/m*3 22.2 C 0 km/h
1167 23-06-2004 17:21:01 22 C 10.09 g/m*3 22 C 0 km/h
1168 23-06-2004 17:33:01 21.5 C 9.43 g/m*3 21.5 C 0 km/h
1169 23-06-2004 17:45:01 19 C 10.43 g/m*3 19 C 0 km/h
1170 23-06-2004 17:57:01 16.3 C 11.38 g/m*3 16.3 C 0 km/h
1171 23-06-2004 18:09:01 17.8 C 12.75 g/m*3 17.8 C 0 km/h
1172 23-06-2004 18:21:01 20 C 12.1 g/m*3 20 C 0 km/h
1173 23-06-2004 18:33:01 19.2 C 11.05 g/m*3 19.2 C 0 km/h
1174 23-06-2004 18:45:01 18 C 10.91 g/m*3 18 C 0 km/h
1175 23-06-2004 18:57:01 18.7 C 10.73 g/m*3 18.7 C 0 km/h
Sensor: Nr:Datum:Temp:Abs-Feuchte:Windchill:Wind:
Aussen-T/F 1176 23-06-2004 19:09:01 19.9 C 10.48 g/m*3 19.9 C 0 km/h
1177 23-06-2004 19:21:01 19.5 C 10.74 g/m*3 19.5 C 0 km/h
1178 23-06-2004 19:33:01 20.6 C 10.92 g/m*3 20.6 C 0 km/h
1179 23-06-2004 19:45:01 20.8 C 10.5 g/m*3 20.8 C 0 km/h
1180 23-06-2004 19:57:01 20.4 C 10.08 g/m*3 20.4 C 0 km/h
1181 23-06-2004 20:09:01 20.9 C 10.56 g/m*3 20.9 C 0 km/h
1182 23-06-2004 20:21:01 21 C 9.89 g/m*3 21 C 0 km/h
1183 23-06-2004 20:33:01 21.1 C 9.58 g/m*3 21.1 C 0 km/h
1184 23-06-2004 20:45:01 20.8 C 9.23 g/m*3 20.8 C 0 km/h
1185 23-06-2004 20:57:02 20.3 C 9.5 g/m*3 20.3 C 0 km/h
1186 23-06-2004 21:09:01 19.9 C 9.45 g/m*3 19.9 C 0 km/h
1187 23-06-2004 21:21:01 19.7 C 9.34 g/m*3 19.7 C 0 km/h
1188 23-06-2004 21:33:01 19.3 C 9.12 g/m*3 19.3 C 0 km/h
1189 23-06-2004 21:45:01 19.1 C 8.85 g/m*3 19.1 C 0 km/h
1190 23-06-2004 21:57:02 19.1 C 8.36 g/m*3 19.1 C 0 km/h
1191 23-06-2004 22:09:01 19.1 C 8.03 g/m*3 19.1 C 0 km/h
1192 23-06-2004 22:21:01 19.1 C 7.87 g/m*3 19.1 C 0 km/h
1193 23-06-2004 22:33:01 19.1 C 7.7 g/m*3 19.1 C 0 km/h
1194 23-06-2004 22:45:01 18.8 C 7.57 g/m*3 18.8 C 0 km/h
1195 23-06-2004 22:57:01 18.7 C 7.2 g/m*3 18.7 C 0 km/h
1196 23-06-2004 23:09:01 18.6 C 7.16 g/m*3 18.6 C 0 km/h
1197 23-06-2004 23:21:01 18.7 C 6.88 g/m*3 18.7 C 0 km/h
1198 23-06-2004 23:33:01 18.7 C 6.72 g/m*3 18.7 C 0 km/h
1199 23-06-2004 23:45:01 18.7 C 6.72 g/m*3 18.7 C 0 km/h
1200 23-06-2004 23:57:01 18.4 C 6.76 g/m*3 18.4 C 0 km/h
Sensor: Nr:Datum:Temp:Abs-Feuchte:Windchill:Wind:
Aussen-T/F 1201 24-06-2004 00:09:01 18.4 C 6.76 g/m*3 18.4 C 0 km/h
1202 24-06-2004 00:21:02 17.9 C 7.02 g/m*3 17.9 C 0 km/h
1203 24-06-2004 00:33:02 17.2 C 7.32 g/m*3 17.2 C 0 km/h
1204 24-06-2004 00:45:01 16.9 C 7.48 g/m*3 16.9 C 0 km/h
1205 24-06-2004 00:57:01 16.8 C 7.43 g/m*3 16.8 C 0 km/h
1206 24-06-2004 01:09:01 16.8 C 7.43 g/m*3 16.8 C 0 km/h
1207 24-06-2004 01:21:01 17 C 7.23 g/m*3 17 C 0 km/h
1208 24-06-2004 01:33:01 16.5 C 7.3 g/m*3 16.5 C 0 km/h
1209 24-06-2004 01:45:01 16.4 C 7.54 g/m*3 16.4 C 0 km/h
1210 24-06-2004 01:57:01 16.3 C 7.49 g/m*3 16.3 C 0 km/h
1211 24-06-2004 02:09:01 16.2 C 7.31 g/m*3 16.2 C 0 km/h
1212 24-06-2004 02:21:01 16.2 C 6.76 g/m*3 16.2 C 0 km/h
1213 24-06-2004 02:33:01 16 C 6.68 g/m*3 16 C 0 km/h
1214 24-06-2004 02:46:02 15.7 C 6.82 g/m*3 15.7 C 0 km/h
1215 24-06-2004 02:58:02 15.7 C 6.69 g/m*3 15.7 C 0 km/h
1216 24-06-2004 03:10:02 15.4 C 6.44 g/m*3 15.4 C 0 km/h
1217 24-06-2004 03:22:02 15.2 C 6.36 g/m*3 15.2 C 0 km/h
1218 24-06-2004 03:34:01 15 C 6.28 g/m*3 15 C 0 km/h
1219 24-06-2004 03:46:01 15 C 6.28 g/m*3 15 C 0 km/h
1220 24-06-2004 03:58:01 15 C 6.28 g/m*3 15 C 0 km/h
1221 24-06-2004 04:10:01 14.9 C 6.37 g/m*3 14.9 C 0 km/h
1222 24-06-2004 04:22:01 14.7 C 6.42 g/m*3 14.7 C 0 km/h
1223 24-06-2004 04:34:01 14.8 C 6.46 g/m*3 14.8 C 0 km/h
1224 24-06-2004 04:46:01 14.5 C 6.47 g/m*3 14.5 C 0 km/h
1225 24-06-2004 04:58:01 14.6 C 6.38 g/m*3 14.6 C 0 km/h
Sensor: Nr:Datum:Temp:Abs-Feuchte:Windchill:Wind:
Aussen-T/F 1226 24-06-2004 05:10:01 14.4 C 6.43 g/m*3 14.4 C 0 km/h
1227 24-06-2004 05:22:01 14.2 C 6.47 g/m*3 14.2 C 0 km/h
1228 24-06-2004 05:34:01 14.3 C 6.51 g/m*3 14.3 C 0 km/h
1229 24-06-2004 05:46:02 14.3 C 6.63 g/m*3 14.3 C 0 km/h
1230 24-06-2004 05:58:02 14.2 C 6.72 g/m*3 14.2 C 0 km/h
1231 24-06-2004 06:10:01 14.3 C 6.63 g/m*3 14.3 C 0 km/h
1232 24-06-2004 06:22:00 14.3 C 6.76 g/m*3 14.3 C 0 km/h
1233 24-06-2004 06:34:00 14.3 C 6.76 g/m*3 14.3 C 0 km/h
1234 24-06-2004 06:46:02 14.4 C 6.8 g/m*3 14.4 C 0 km/h
1235 24-06-2004 06:58:02 14.4 C 6.8 g/m*3 14.4 C 0 km/h
1236 24-06-2004 07:10:02 14.4 C 6.8 g/m*3 14.4 C 0 km/h
1237 24-06-2004 07:22:02 14.4 C 6.8 g/m*3 14.4 C 0 km/h
1238 24-06-2004 07:34:02 14.4 C 6.92 g/m*3 14.4 C 0 km/h
1239 24-06-2004 07:46:01 14.5 C 6.96 g/m*3 14.5 C 0 km/h
1240 24-06-2004 07:58:01 14.7 C 6.92 g/m*3 14.7 C 0 km/h
1241 24-06-2004 08:10:01 15.2 C 6.88 g/m*3 15.2 C 0 km/h
1242 24-06-2004 08:22:01 15.3 C 6.92 g/m*3 15.3 C 0 km/h
1243 24-06-2004 08:34:01 15 C 6.92 g/m*3 15 C 0 km/h
1244 24-06-2004 08:46:01 15.1 C 6.97 g/m*3 15.1 C 0 km/h
1245 24-06-2004 08:58:01 15.2 C 7.14 g/m*3 15.2 C 0 km/h
1246 24-06-2004 09:10:01 15 C 7.05 g/m*3 15 C 0 km/h
1247 24-06-2004 09:22:01 15.4 C 7.09 g/m*3 15.4 C 0 km/h
1248 24-06-2004 09:34:01 15.7 C 7.36 g/m*3 15.7 C 0 km/h
1249 24-06-2004 09:46:01 15.9 C 7.18 g/m*3 15.9 C 0 km/h
1250 24-06-2004 09:58:01 15.6 C 6.92 g/m*3 15.6 C 0 km/h
Sensor: Nr:Datum:Temp:Abs-Feuchte:Windchill:Wind:
Aussen-T/F 1251 24-06-2004 10:10:01 16 C 7.22 g/m*3 16 C 0 km/h
1252 24-06-2004 10:22:01 16 C 6.81 g/m*3 16 C 0 km/h
1253 24-06-2004 10:34:01 16 C 6.81 g/m*3 16 C 0 km/h
1254 24-06-2004 10:46:01 16.3 C 6.8 g/m*3 16.3 C 0 km/h
1255 24-06-2004 10:58:01 16.4 C 6.98 g/m*3 16.4 C 0 km/h
1256 24-06-2004 11:10:01 16.2 C 6.9 g/m*3 16.2 C 0 km/h
1257 24-06-2004 11:22:01 16.6 C 7.06 g/m*3 16.6 C 0 km/h
1258 24-06-2004 11:34:01 16.5 C 7.02 g/m*3 16.5 C 0 km/h
1259 24-06-2004 11:46:01 16.7 C 6.96 g/m*3 16.7 C 0 km/h
1260 24-06-2004 11:58:01 17.4 C 6.97 g/m*3 17.4 C 0 km/h
1261 24-06-2004 12:10:00 16.8 C 6.72 g/m*3 16.8 C 0 km/h
1262 24-06-2004 12:22:00 17 C 6.95 g/m*3 17 C 0 km/h
1263 24-06-2004 12:34:00 17.2 C 6.74 g/m*3 17.2 C 0 km/h
1264 24-06-2004 12:46:01 18.1 C 6.64 g/m*3 18.1 C 0 km/h
1265 24-06-2004 12:58:01 17.9 C 6.57 g/m*3 17.9 C 0 km/h
1266 24-06-2004 13:10:01 17.6 C 6.9 g/m*3 17.6 C 0 km/h
1267 24-06-2004 13:22:01 17.9 C 6.87 g/m*3 17.9 C 0 km/h
1268 24-06-2004 13:34:01 17.6 C 6.75 g/m*3 17.6 C 0 km/h
1269 24-06-2004 13:46:01 18 C 6.76 g/m*3 18 C 0 km/h
1270 24-06-2004 13:58:01 17.6 C 6.75 g/m*3 17.6 C 0 km/h
1271 24-06-2004 14:10:00 17.4 C 7.11 g/m*3 17.4 C 0 km/h
1272 24-06-2004 14:22:00 18 C 6.3 g/m*3 18 C 0 km/h
1273 24-06-2004 14:34:00 18.2 C 6.22 g/m*3 18.2 C 0 km/h
1274 24-06-2004 14:46:01 18.5 C 6.17 g/m*3 18.5 C 0 km/h
1275 24-06-2004 14:58:01 19.2 C 6.6 g/m*3 19.2 C 0 km/h
Sensor: Nr:Datum:Temp:Abs-Feuchte:Windchill:Wind:
Aussen-T/F 1276 24-06-2004 15:10:01 19.1 C 6.07 g/m*3 19.1 C 0 km/h
1277 24-06-2004 15:22:01 19.1 C 6.23 g/m*3 19.1 C 0 km/h
1278 24-06-2004 15:34:01 19.1 C 6.39 g/m*3 19.1 C 0 km/h
1279 24-06-2004 15:46:01 18.6 C 6.05 g/m*3 18.6 C 0 km/h
1280 24-06-2004 15:58:01 18.9 C 6.64 g/m*3 18.9 C 0 km/h
1281 24-06-2004 16:10:00 19.8 C 6.66 g/m*3 19.8 C 0 km/h
1282 24-06-2004 16:22:01 19.2 C 6.6 g/m*3 19.2 C 0 km/h
1283 24-06-2004 16:34:01 18.7 C 6.56 g/m*3 18.7 C 0 km/h
1284 24-06-2004 16:46:01 17.7 C 6.94 g/m*3 17.7 C 0 km/h
1285 24-06-2004 16:58:01 18.8 C 7.25 g/m*3 18.8 C 0 km/h
1286 24-06-2004 17:10:01 20 C 7.43 g/m*3 20 C 0 km/h
1287 24-06-2004 17:22:01 19.6 C 7.09 g/m*3 19.6 C 0 km/h
1288 24-06-2004 17:34:01 20.2 C 7.17 g/m*3 20.2 C 0 km/h
1289 24-06-2004 17:46:01 18.5 C 7.12 g/m*3 18.5 C 0 km/h
1290 24-06-2004 17:58:01 17.9 C 7.94 g/m*3 17.9 C 0 km/h
1291 24-06-2004 18:10:01 19 C 7.5 g/m*3 19 C 0 km/h
1292 24-06-2004 18:22:01 19.1 C 7.05 g/m*3 19.1 C 0 km/h
1293 24-06-2004 18:34:01 18.5 C 6.96 g/m*3 18.5 C 0 km/h
1294 24-06-2004 18:46:01 19.5 C 7.55 g/m*3 19.5 C 0 km/h
1295 24-06-2004 18:58:01 17.7 C 7.09 g/m*3 17.7 C 0 km/h
1296 24-06-2004 19:10:01 17.3 C 7.07 g/m*3 17.3 C 0 km/h
1297 24-06-2004 19:22:01 17.2 C 7.18 g/m*3 17.2 C 0 km/h
1298 24-06-2004 19:34:01 18.2 C 7.46 g/m*3 18.2 C 0 km/h
1299 24-06-2004 19:46:01 18.1 C 7.57 g/m*3 18.1 C 0 km/h
1300 24-06-2004 19:58:01 18 C 7.68 g/m*3 18 C 0 km/h
Sensor: Nr:Datum:Temp:Abs-Feuchte:Windchill:Wind:
Aussen-T/F 1301 24-06-2004 20:10:01 17.7 C 7.85 g/m*3 17.7 C 0 km/h
1302 24-06-2004 20:22:01 17.7 C 8 g/m*3 17.7 C 0 km/h
1303 24-06-2004 20:34:01 17.4 C 8 g/m*3 17.4 C 0 km/h
1304 24-06-2004 20:46:01 16.7 C 7.53 g/m*3 16.7 C 0 km/h
1305 24-06-2004 20:58:01 16.2 C 7.31 g/m*3 16.2 C 0 km/h
1306 24-06-2004 21:10:01 16.2 C 7.45 g/m*3 16.2 C 0 km/h
1307 24-06-2004 21:22:01 15.8 C 7.54 g/m*3 15.8 C 0 km/h
1308 24-06-2004 21:34:02 15.4 C 7.49 g/m*3 15.4 C 0 km/h
1309 24-06-2004 21:46:01 14.9 C 7.52 g/m*3 14.9 C 0 km/h
1310 24-06-2004 21:58:01 14.7 C 7.68 g/m*3 14.7 C 0 km/h
1311 24-06-2004 22:10:01 14.7 C 7.93 g/m*3 14.7 C 0 km/h
1312 24-06-2004 22:22:01 14.7 C 7.93 g/m*3 14.7 C 0 km/h
1313 24-06-2004 22:34:02 14.5 C 8.21 g/m*3 14.5 C 0 km/h
1314 24-06-2004 22:46:02 13.7 C 8.76 g/m*3 13.7 C 0 km/h
1315 24-06-2004 22:58:02 13.7 C 9.24 g/m*3 13.7 C 0 km/h
1316 24-06-2004 23:10:02 13.7 C 8.88 g/m*3 13.7 C 0 km/h
1317 24-06-2004 23:22:02 13.4 C 9.07 g/m*3 13.4 C 0 km/h
1318 24-06-2004 23:34:02 12.9 C 9.24 g/m*3 12.9 C 0 km/h
1319 24-06-2004 23:46:02 12.1 C 8.79 g/m*3 12.1 C 0 km/h
1320 24-06-2004 23:58:02 12.3 C 9.23 g/m*3 12.3 C 0 km/h
1321 25-06-2004 00:10:02 12.6 C 9.29 g/m*3 12.6 C 0 km/h
1322 25-06-2004 00:22:02 12.8 C 9.41 g/m*3 12.8 C 0 km/h
1323 25-06-2004 00:34:02 12.7 C 9.35 g/m*3 12.7 C 0 km/h
1324 25-06-2004 00:46:01 12.5 C 9.24 g/m*3 12.5 C 0 km/h
1325 25-06-2004 00:58:01 12 C 8.95 g/m*3 12 C 0 km/h
Sensor: Nr:Datum:Temp:Abs-Feuchte:Windchill:Wind:
Aussen-T/F 1326 25-06-2004 01:10:01 11.8 C 8.95 g/m*3 11.8 C 0 km/h
1327 25-06-2004 01:22:01 11.6 C 8.94 g/m*3 11.6 C 0 km/h
1328 25-06-2004 01:34:01 11.2 C 8.72 g/m*3 11.2 C 0 km/h
1329 25-06-2004 01:46:01 11.1 C 8.76 g/m*3 11.1 C 0 km/h
1330 25-06-2004 01:58:01 11 C 8.71 g/m*3 11 C 0 km/h
1331 25-06-2004 02:10:01 10.9 C 8.75 g/m*3 10.9 C 0 km/h
1332 25-06-2004 02:22:01 10.7 C 8.55 g/m*3 10.7 C 0 km/h
1333 25-06-2004 02:34:01 10.5 C 8.53 g/m*3 10.5 C 0 km/h
1334 25-06-2004 02:47:02 10.8 C 8.6 g/m*3 10.8 C 0 km/h
1335 25-06-2004 02:59:02 10.8 C 8.5 g/m*3 10.8 C 0 km/h
1336 25-06-2004 03:11:03 10.6 C 8.3 g/m*3 10.6 C 0 km/h
1337 25-06-2004 03:23:03 10.5 C 8.24 g/m*3 10.5 C 0 km/h
1338 25-06-2004 03:35:01 10.5 C 8.15 g/m*3 10.5 C 0 km/h
1339 25-06-2004 03:47:01 10.3 C 8.14 g/m*3 10.3 C 0 km/h
1340 25-06-2004 03:59:01 10.3 C 8.24 g/m*3 10.3 C 0 km/h
1341 25-06-2004 04:11:01 10.9 C 8.06 g/m*3 10.9 C 0 km/h
1342 25-06-2004 04:23:01 10.8 C 7.91 g/m*3 10.8 C 0 km/h
1343 25-06-2004 04:35:01 11 C 7.81 g/m*3 11 C 0 km/h
1344 25-06-2004 04:47:01 11 C 7.61 g/m*3 11 C 0 km/h
1345 25-06-2004 04:59:01 10.9 C 7.46 g/m*3 10.9 C 0 km/h
1346 25-06-2004 05:11:00 10.7 C 7.66 g/m*3 10.7 C 0 km/h
1347 25-06-2004 05:23:00 10.5 C 7.57 g/m*3 10.5 C 0 km/h
1348 25-06-2004 05:35:00 10.4 C 7.52 g/m*3 10.4 C 0 km/h
1349 25-06-2004 05:47:01 10.4 C 7.42 g/m*3 10.4 C 0 km/h
1350 25-06-2004 05:59:01 10.1 C 7.47 g/m*3 10.1 C 0 km/h
Sensor: Nr:Datum:Temp:Abs-Feuchte:Windchill:Wind:
Aussen-T/F 1351 25-06-2004 06:11:01 10 C 7.52 g/m*3 10 C 0 km/h
1352 25-06-2004 06:23:01 10 C 7.61 g/m*3 10 C 0 km/h
1353 25-06-2004 06:35:01 10.7 C 7.46 g/m*3 10.7 C 0 km/h
1354 25-06-2004 06:47:01 11.2 C 7.3 g/m*3 11.2 C 0 km/h
1355 25-06-2004 06:59:01 11.4 C 7.39 g/m*3 11.4 C 0 km/h
1356 25-06-2004 07:11:00 11.4 C 7.39 g/m*3 11.4 C 0 km/h
1357 25-06-2004 07:23:00 11.4 C 7.49 g/m*3 11.4 C 0 km/h
1358 25-06-2004 07:35:00 11.5 C 7.44 g/m*3 11.5 C 0 km/h
1359 25-06-2004 07:47:01 11.7 C 7.53 g/m*3 11.7 C 0 km/h
1360 25-06-2004 07:59:01 12 C 7.46 g/m*3 12 C 0 km/h
1361 25-06-2004 08:11:01 12.2 C 7.34 g/m*3 12.2 C 0 km/h
1362 25-06-2004 08:23:01 12.4 C 7.32 g/m*3 12.4 C 0 km/h
1363 25-06-2004 08:35:00 12.9 C 7.33 g/m*3 12.9 C 0 km/h
1364 25-06-2004 08:47:01 13.3 C 7.51 g/m*3 13.3 C 0 km/h
1365 25-06-2004 08:59:01 13.2 C 7.46 g/m*3 13.2 C 0 km/h
1366 25-06-2004 09:11:01 13.4 C 7.67 g/m*3 13.4 C 0 km/h
1367 25-06-2004 09:23:01 13.9 C 7.55 g/m*3 13.9 C 0 km/h
1368 25-06-2004 09:35:00 14.3 C 7.62 g/m*3 14.3 C 0 km/h
1369 25-06-2004 09:47:01 14.6 C 7.63 g/m*3 14.6 C 0 km/h
1370 25-06-2004 09:59:01 14.4 C 7.42 g/m*3 14.4 C 0 km/h
1371 25-06-2004 10:11:01 15.1 C 7.74 g/m*3 15.1 C 0 km/h
1372 25-06-2004 10:23:01 15.5 C 7.53 g/m*3 15.5 C 0 km/h
1373 25-06-2004 10:35:00 16 C 7.63 g/m*3 16 C 0 km/h
1374 25-06-2004 10:47:01 16.1 C 7.4 g/m*3 16.1 C 0 km/h
1375 25-06-2004 10:59:01 16.7 C 7.25 g/m*3 16.7 C 0 km/h
Sensor: Nr:Datum:Temp:Abs-Feuchte:Windchill:Wind:
Aussen-T/F 1376 25-06-2004 11:11:01 16.7 C 7.11 g/m*3 16.7 C 0 km/h
1377 25-06-2004 11:23:01 17.5 C 7.16 g/m*3 17.5 C 0 km/h
1378 25-06-2004 11:35:00 17.2 C 7.03 g/m*3 17.2 C 0 km/h
1379 25-06-2004 11:47:01 17.1 C 7.13 g/m*3 17.1 C 0 km/h
1380 25-06-2004 11:59:01 16.9 C 6.76 g/m*3 16.9 C 0 km/h
1381 25-06-2004 12:11:01 17.7 C 6.94 g/m*3 17.7 C 0 km/h
1382 25-06-2004 12:23:01 17.2 C 6.74 g/m*3 17.2 C 0 km/h
1383 25-06-2004 12:35:01 17.7 C 6.19 g/m*3 17.7 C 0 km/h
1384 25-06-2004 12:47:01 17 C 6.22 g/m*3 17 C 0 km/h
1385 25-06-2004 12:59:01 17.5 C 6.11 g/m*3 17.5 C 0 km/h
1386 25-06-2004 13:11:01 18.6 C 6.37 g/m*3 18.6 C 0 km/h
1387 25-06-2004 13:23:01 18.4 C 6.29 g/m*3 18.4 C 0 km/h
1388 25-06-2004 13:35:01 18.5 C 6.49 g/m*3 18.5 C 0 km/h
1389 25-06-2004 13:47:01 18 C 6.91 g/m*3 18 C 0 km/h
1390 25-06-2004 13:59:01 18.4 C 7.08 g/m*3 18.4 C 0 km/h
1391 25-06-2004 14:11:01 19.3 C 6.8 g/m*3 19.3 C 0 km/h
1392 25-06-2004 14:23:01 19.3 C 6.8 g/m*3 19.3 C 0 km/h
1393 25-06-2004 14:35:01 18.5 C 6.65 g/m*3 18.5 C 0 km/h
1394 25-06-2004 14:47:01 18.3 C 7.19 g/m*3 18.3 C 0 km/h
1395 25-06-2004 14:59:01 18 C 7.22 g/m*3 18 C 0 km/h
1396 25-06-2004 15:11:01 18.4 C 7.08 g/m*3 18.4 C 0 km/h
1397 25-06-2004 15:23:01 18.2 C 7.15 g/m*3 18.2 C 0 km/h
1398 25-06-2004 15:35:01 20.3 C 7.39 g/m*3 20.3 C 0 km/h
1399 25-06-2004 15:47:01 19.6 C 7.6 g/m*3 19.6 C 0 km/h
1400 25-06-2004 15:59:01 18.5 C 7.44 g/m*3 18.5 C 0 km/h
Sensor: Nr:Datum:Temp:Abs-Feuchte:Windchill:Wind:
Aussen-T/F 1401 25-06-2004 16:11:01 17.9 C 6.26 g/m*3 17.9 C 0 km/h
1402 25-06-2004 16:23:01 17.7 C 6.64 g/m*3 17.7 C 0 km/h
1403 25-06-2004 16:35:01 17.6 C 6.75 g/m*3 17.6 C 0 km/h
1404 25-06-2004 16:47:01 17.8 C 6.83 g/m*3 17.8 C 0 km/h
1405 25-06-2004 16:59:01 18 C 6.91 g/m*3 18 C 0 km/h
1406 25-06-2004 17:11:01 18.5 C 6.8 g/m*3 18.5 C 0 km/h
1407 25-06-2004 17:23:01 18.6 C 7 g/m*3 18.6 C 0 km/h
1408 25-06-2004 17:35:01 18.5 C 7.12 g/m*3 18.5 C 0 km/h
1409 25-06-2004 17:47:01 17.6 C 6.9 g/m*3 17.6 C 0 km/h
1410 25-06-2004 17:59:01 17.2 C 7.18 g/m*3 17.2 C 0 km/h
1411 25-06-2004 18:11:01 17.2 C 7.47 g/m*3 17.2 C 0 km/h
1412 25-06-2004 18:23:01 17.1 C 7.57 g/m*3 17.1 C 0 km/h
1413 25-06-2004 18:35:01 16.9 C 6.76 g/m*3 16.9 C 0 km/h
1414 25-06-2004 18:47:01 17.3 C 7.07 g/m*3 17.3 C 0 km/h
1415 25-06-2004 18:59:01 17.5 C 7.45 g/m*3 17.5 C 0 km/h
1416 25-06-2004 19:11:01 17.5 C 7.31 g/m*3 17.5 C 0 km/h
1417 25-06-2004 19:23:01 17.1 C 7.42 g/m*3 17.1 C 0 km/h
1418 25-06-2004 19:35:01 17.4 C 7.11 g/m*3 17.4 C 0 km/h
1419 25-06-2004 19:47:01 17.3 C 7.07 g/m*3 17.3 C 0 km/h
1420 25-06-2004 19:59:01 17.4 C 7.41 g/m*3 17.4 C 0 km/h
1421 25-06-2004 20:11:01 17.6 C 7.8 g/m*3 17.6 C 0 km/h
1422 25-06-2004 20:23:01 18.2 C 7.46 g/m*3 18.2 C 0 km/h
1423 25-06-2004 20:35:01 17.9 C 7.33 g/m*3 17.9 C 0 km/h
1424 25-06-2004 20:47:02 17.3 C 7.81 g/m*3 17.3 C 0 km/h
1425 25-06-2004 20:59:02 16.7 C 7.96 g/m*3 16.7 C 0 km/h
Sensor: Nr:Datum:Temp:Abs-Feuchte:Windchill:Wind:
Aussen-T/F 1426 25-06-2004 21:11:01 16.2 C 8 g/m*3 16.2 C 0 km/h
1427 25-06-2004 21:23:02 15.4 C 7.75 g/m*3 15.4 C 0 km/h
1428 25-06-2004 21:35:02 14.8 C 7.73 g/m*3 14.8 C 0 km/h
1429 25-06-2004 21:47:02 14.3 C 7.62 g/m*3 14.3 C 0 km/h
1430 25-06-2004 21:59:02 14 C 7.6 g/m*3 14 C 0 km/h
1431 25-06-2004 22:11:02 13.6 C 7.77 g/m*3 13.6 C 0 km/h
1432 25-06-2004 22:23:02 13.4 C 7.79 g/m*3 13.4 C 0 km/h
1433 25-06-2004 22:35:02 13.1 C 7.76 g/m*3 13.1 C 0 km/h
1434 25-06-2004 22:47:02 13.1 C 7.99 g/m*3 13.1 C 0 km/h
1435 25-06-2004 22:59:02 12.8 C 7.95 g/m*3 12.8 C 0 km/h
1436 25-06-2004 23:11:02 12.7 C 8.13 g/m*3 12.7 C 0 km/h
1437 25-06-2004 23:23:02 12.3 C 8.04 g/m*3 12.3 C 0 km/h
1438 25-06-2004 23:35:02 12 C 8.1 g/m*3 12 C 0 km/h
1439 25-06-2004 23:47:01 11.8 C 8.21 g/m*3 11.8 C 0 km/h
1440 25-06-2004 23:59:01 11.7 C 8.16 g/m*3 11.7 C 0 km/h
1441 26-06-2004 00:11:01 11.7 C 8.16 g/m*3 11.7 C 0 km/h
1442 26-06-2004 00:23:00 11.5 C 8.16 g/m*3 11.5 C 0 km/h
1443 26-06-2004 00:35:00 11.3 C 8.06 g/m*3 11.3 C 0 km/h
1444 26-06-2004 00:47:01 11 C 8.01 g/m*3 11 C 0 km/h
1445 26-06-2004 00:59:01 11 C 8.11 g/m*3 11 C 0 km/h
1446 26-06-2004 01:11:01 10.8 C 8.11 g/m*3 10.8 C 0 km/h
1447 26-06-2004 01:23:01 10.7 C 8.05 g/m*3 10.7 C 0 km/h
1448 26-06-2004 01:35:01 10.5 C 8.05 g/m*3 10.5 C 0 km/h
1449 26-06-2004 01:47:01 10.2 C 7.9 g/m*3 10.2 C 0 km/h
1450 26-06-2004 01:59:01 10.2 C 7.99 g/m*3 10.2 C 0 km/h
Sensor: Nr:Datum:Temp:Abs-Feuchte:Windchill:Wind:
Aussen-T/F 1451 26-06-2004 02:11:01 10 C 8.08 g/m*3 10 C 0 km/h
1452 26-06-2004 02:23:01 9.8 C 8.16 g/m*3 9.8 C 0 km/h
1453 26-06-2004 02:35:01 9.6 C 7.97 g/m*3 9.6 C 0 km/h
1454 26-06-2004 02:48:03 9.5 C 8.01 g/m*3 9.5 C 0 km/h
1455 26-06-2004 03:00:03 9.4 C 7.87 g/m*3 9.4 C 0 km/h
1456 26-06-2004 03:12:03 9.3 C 7.91 g/m*3 9.3 C 0 km/h
1457 26-06-2004 03:24:03 9.3 C 7.91 g/m*3 9.3 C 0 km/h
1458 26-06-2004 03:36:02 9.2 C 7.86 g/m*3 9.2 C 0 km/h
1459 26-06-2004 03:48:02 9 C 7.76 g/m*3 9 C 0 km/h
1460 26-06-2004 04:00:02 8.9 C 7.8 g/m*3 8.9 C 0 km/h
1461 26-06-2004 04:12:02 8.8 C 7.75 g/m*3 8.8 C 0 km/h
1462 26-06-2004 04:24:02 8.6 C 7.73 g/m*3 8.6 C 0 km/h
1463 26-06-2004 04:36:02 8.6 C 7.73 g/m*3 8.6 C 0 km/h
1464 26-06-2004 04:48:01 8.5 C 7.68 g/m*3 8.5 C 0 km/h
1465 26-06-2004 05:00:01 8.4 C 7.55 g/m*3 8.4 C 0 km/h
1466 26-06-2004 05:12:01 8.4 C 7.55 g/m*3 8.4 C 0 km/h
1467 26-06-2004 05:24:01 8.1 C 7.41 g/m*3 8.1 C 0 km/h
1468 26-06-2004 05:36:01 8 C 7.44 g/m*3 8 C 0 km/h
1469 26-06-2004 05:48:01 7.9 C 7.47 g/m*3 7.9 C 0 km/h
1470 26-06-2004 06:00:01 7.9 C 7.47 g/m*3 7.9 C 0 km/h
1471 26-06-2004 06:12:00 8 C 7.36 g/m*3 8 C 0 km/h
1472 26-06-2004 06:24:00 7.9 C 7.47 g/m*3 7.9 C 0 km/h
1473 26-06-2004 06:36:00 8 C 7.52 g/m*3 8 C 0 km/h
1474 26-06-2004 06:48:01 8.5 C 7.85 g/m*3 8.5 C 0 km/h
1475 26-06-2004 07:00:01 8.3 C 7.67 g/m*3 8.3 C 0 km/h
Sensor: Nr:Datum:Temp:Abs-Feuchte:Windchill:Wind:
Aussen-T/F 1476 26-06-2004 07:12:01 8.2 C 7.62 g/m*3 8.2 C 0 km/h
1477 26-06-2004 07:24:01 8.2 C 7.54 g/m*3 8.2 C 0 km/h
1478 26-06-2004 07:36:00 8.6 C 7.82 g/m*3 8.6 C 0 km/h
1479 26-06-2004 07:48:01 8.8 C 7.83 g/m*3 8.8 C 0 km/h
1480 26-06-2004 08:00:01 9 C 7.76 g/m*3 9 C 0 km/h
1481 26-06-2004 08:12:01 9.3 C 7.91 g/m*3 9.3 C 0 km/h
1482 26-06-2004 08:24:01 9.4 C 7.96 g/m*3 9.4 C 0 km/h
1483 26-06-2004 08:36:00 9.6 C 8.06 g/m*3 9.6 C 0 km/h
1484 26-06-2004 08:48:01 10 C 8.17 g/m*3 10 C 0 km/h
1485 26-06-2004 09:00:01 10.9 C 8.45 g/m*3 10.9 C 0 km/h
1486 26-06-2004 09:12:01 11.5 C 8.47 g/m*3 11.5 C 0 km/h
1487 26-06-2004 09:24:01 12.4 C 8.74 g/m*3 12.4 C 0 km/h
1488 26-06-2004 09:36:01 13.1 C 8.79 g/m*3 13.1 C 0 km/h
1489 26-06-2004 09:48:01 14 C 9.05 g/m*3 14 C 0 km/h
1490 26-06-2004 10:00:01 14.7 C 9.07 g/m*3 14.7 C 0 km/h
1491 26-06-2004 10:12:01 15.5 C 9.25 g/m*3 15.5 C 0 km/h
1492 26-06-2004 10:24:01 16.4 C 9.21 g/m*3 16.4 C 0 km/h
1493 26-06-2004 10:36:01 17.3 C 9.28 g/m*3 17.3 C 0 km/h
1494 26-06-2004 10:48:01 17.5 C 9.24 g/m*3 17.5 C 0 km/h
1495 26-06-2004 11:00:01 17.1 C 9.32 g/m*3 17.1 C 0 km/h
1496 26-06-2004 11:12:01 17.2 C 9.08 g/m*3 17.2 C 0 km/h
1497 26-06-2004 11:24:01 18.9 C 8.75 g/m*3 18.9 C 0 km/h
1498 26-06-2004 11:36:01 19.2 C 8.41 g/m*3 19.2 C 0 km/h
1499 26-06-2004 11:48:01 18.7 C 9.29 g/m*3 18.7 C 0 km/h
1500 26-06-2004 12:00:01 21.4 C 8.44 g/m*3 21.4 C 0 km/h
Sensor: Nr:Datum:Temp:Abs-Feuchte:Windchill:Wind:
Aussen-T/F 1501 26-06-2004 12:12:01 22.1 C 7.42 g/m*3 22.1 C 0 km/h
1502 26-06-2004 12:24:01 20.8 C 8.69 g/m*3 20.8 C 0 km/h
1503 26-06-2004 12:36:01 21.3 C 8.57 g/m*3 21.3 C 0 km/h
1504 26-06-2004 12:48:01 22.5 C 7.59 g/m*3 22.5 C 0 km/h
1505 26-06-2004 13:00:01 21.8 C 7.1 g/m*3 21.8 C 0 km/h
1506 26-06-2004 13:12:01 21.9 C 9.07 g/m*3 21.9 C 0 km/h
1507 26-06-2004 13:24:01 22.6 C 9.24 g/m*3 22.6 C 0 km/h
1508 26-06-2004 13:36:01 23.9 C 6.92 g/m*3 23.9 C 0 km/h
1509 26-06-2004 13:48:01 24 C 6.09 g/m*3 24 C 0 km/h
1510 26-06-2004 14:00:01 23.9 C 6.27 g/m*3 23.9 C 0 km/h
1511 26-06-2004 14:12:01 23.8 C 6.24 g/m*3 23.8 C 0 km/h
1512 26-06-2004 14:24:01 23.7 C 7.7 g/m*3 23.7 C 0 km/h
1513 26-06-2004 14:36:01 24.9 C 7.1 g/m*3 24.9 C 0 km/h
1514 26-06-2004 14:48:01 24.3 C 6.64 g/m*3 24.3 C 0 km/h
1515 26-06-2004 15:00:01 23.6 C 6.59 g/m*3 23.6 C 0 km/h
1516 26-06-2004 15:12:01 25.4 C 7.77 g/m*3 25.4 C 0 km/h
1517 26-06-2004 15:24:01 25.5 C 6.87 g/m*3 25.5 C 0 km/h
1518 26-06-2004 15:36:01 25.6 C 6.43 g/m*3 25.6 C 0 km/h
1519 26-06-2004 15:48:01 25.3 C 6.55 g/m*3 25.3 C 0 km/h
1520 26-06-2004 16:00:01 24.7 C 7.02 g/m*3 24.7 C 0 km/h
1521 26-06-2004 16:12:01 24.4 C 6.45 g/m*3 24.4 C 0 km/h
1522 26-06-2004 16:24:01 24.3 C 6.42 g/m*3 24.3 C 0 km/h
1523 26-06-2004 16:36:01 24 C 6.31 g/m*3 24 C 0 km/h
1524 26-06-2004 16:48:01 23.9 C 6.71 g/m*3 23.9 C 0 km/h
1525 26-06-2004 17:00:02 24.2 C 7.48 g/m*3 24.2 C 0 km/h
Sensor: Nr:Datum:Temp:Abs-Feuchte:Windchill:Wind:
Aussen-T/F 1526 26-06-2004 17:12:01 24.6 C 7.43 g/m*3 24.6 C 0 km/h
1527 26-06-2004 17:24:01 24 C 6.53 g/m*3 24 C 0 km/h
1528 26-06-2004 17:36:01 24.3 C 7.52 g/m*3 24.3 C 0 km/h
1529 26-06-2004 17:48:01 24.5 C 8.06 g/m*3 24.5 C 0 km/h
1530 26-06-2004 18:00:02 23.9 C 8.65 g/m*3 23.9 C 0 km/h
1531 26-06-2004 18:12:01 23.7 C 8.77 g/m*3 23.7 C 0 km/h
1532 26-06-2004 18:24:01 23.3 C 8.78 g/m*3 23.3 C 0 km/h
1533 26-06-2004 18:36:02 22.9 C 8.99 g/m*3 22.9 C 0 km/h
1534 26-06-2004 18:48:02 22.6 C 9.24 g/m*3 22.6 C 0 km/h
1535 26-06-2004 19:00:03 22.2 C 8.83 g/m*3 22.2 C 0 km/h
1536 26-06-2004 19:12:02 21.9 C 9.26 g/m*3 21.9 C 0 km/h
1537 26-06-2004 19:24:02 21.5 C 8.86 g/m*3 21.5 C 0 km/h
1538 26-06-2004 19:36:02 21.2 C 8.9 g/m*3 21.2 C 0 km/h
1539 26-06-2004 19:48:01 20.8 C 8.87 g/m*3 20.8 C 0 km/h
1540 26-06-2004 20:00:01 20.5 C 8.72 g/m*3 20.5 C 0 km/h
1541 26-06-2004 20:12:01 20.3 C 8.79 g/m*3 20.3 C 0 km/h
1542 26-06-2004 20:24:01 20.1 C 8.52 g/m*3 20.1 C 0 km/h
1543 26-06-2004 20:36:01 20 C 8.81 g/m*3 20 C 0 km/h
1544 26-06-2004 20:48:01 19.8 C 8.88 g/m*3 19.8 C 0 km/h
1545 26-06-2004 21:00:01 19.5 C 8.73 g/m*3 19.5 C 0 km/h
1546 26-06-2004 21:12:01 19.3 C 8.63 g/m*3 19.3 C 0 km/h
1547 26-06-2004 21:24:01 19.2 C 8.74 g/m*3 19.2 C 0 km/h
1548 26-06-2004 21:36:01 19 C 8.8 g/m*3 19 C 0 km/h
1549 26-06-2004 21:48:01 18.7 C 8.81 g/m*3 18.7 C 0 km/h
1550 26-06-2004 22:00:01 18.5 C 8.7 g/m*3 18.5 C 0 km/h
Sensor: Nr:Datum:Temp:Abs-Feuchte:Windchill:Wind:
Aussen-T/F 1551 26-06-2004 22:12:01 18.4 C 8.65 g/m*3 18.4 C 0 km/h
1552 26-06-2004 22:24:01 18.3 C 8.76 g/m*3 18.3 C 0 km/h
1553 26-06-2004 22:36:01 18.2 C 9.17 g/m*3 18.2 C 0 km/h
1554 26-06-2004 22:48:01 17.4 C 9.78 g/m*3 17.4 C 0 km/h
1555 26-06-2004 23:00:01 16.9 C 9.35 g/m*3 16.9 C 0 km/h
1556 26-06-2004 23:12:01 17.1 C 8.88 g/m*3 17.1 C 0 km/h
1557 26-06-2004 23:24:00 17.4 C 9.04 g/m*3 17.4 C 0 km/h
1558 26-06-2004 23:36:00 17.4 C 9.34 g/m*3 17.4 C 0 km/h
1559 26-06-2004 23:48:01 17.3 C 8.84 g/m*3 17.3 C 0 km/h
1560 27-06-2004 00:00:01 17.2 C 8.49 g/m*3 17.2 C 0 km/h
1561 27-06-2004 00:12:01 17.2 C 9.08 g/m*3 17.2 C 0 km/h
1562 27-06-2004 00:24:01 17 C 8.97 g/m*3 17 C 0 km/h
1563 27-06-2004 00:36:01 17 C 8.97 g/m*3 17 C 0 km/h
1564 27-06-2004 00:48:01 17 C 8.97 g/m*3 17 C 0 km/h
1565 27-06-2004 01:00:01 16.5 C 9.41 g/m*3 16.5 C 0 km/h
1566 27-06-2004 01:12:01 16.4 C 9.35 g/m*3 16.4 C 0 km/h
1567 27-06-2004 01:24:01 16.4 C 9.63 g/m*3 16.4 C 0 km/h
1568 27-06-2004 01:36:01 16.5 C 9.55 g/m*3 16.5 C 0 km/h
1569 27-06-2004 01:48:01 16.5 C 9.55 g/m*3 16.5 C 0 km/h
1570 27-06-2004 02:00:01 16.4 C 9.49 g/m*3 16.4 C 0 km/h
1571 27-06-2004 02:12:01 16.4 C 9.63 g/m*3 16.4 C 0 km/h
1572 27-06-2004 02:24:01 16.2 C 10.07 g/m*3 16.2 C 0 km/h
1573 27-06-2004 02:36:01 15.6 C 10.24 g/m*3 15.6 C 0 km/h
1574 27-06-2004 02:49:02 15.6 C 10.24 g/m*3 15.6 C 0 km/h
1575 27-06-2004 03:01:02 15.4 C 10.51 g/m*3 15.4 C 0 km/h
Sensor: Nr:Datum:Temp:Abs-Feuchte:Windchill:Wind:
Aussen-T/F 1576 27-06-2004 03:13:02 14.7 C 10.7 g/m*3 14.7 C 0 km/h
1577 27-06-2004 03:25:02 14.7 C 10.95 g/m*3 14.7 C 0 km/h
1578 27-06-2004 03:37:02 14.9 C 11.22 g/m*3 14.9 C 0 km/h
1579 27-06-2004 03:49:02 15.1 C 11.35 g/m*3 15.1 C 0 km/h
1580 27-06-2004 04:01:02 15.1 C 11.22 g/m*3 15.1 C 0 km/h
1581 27-06-2004 04:13:02 15.2 C 11.29 g/m*3 15.2 C 0 km/h
1582 27-06-2004 04:25:02 15.1 C 11.09 g/m*3 15.1 C 0 km/h
1583 27-06-2004 04:37:02 15 C 10.9 g/m*3 15 C 0 km/h
1584 27-06-2004 04:49:02 15 C 10.9 g/m*3 15 C 0 km/h
1585 27-06-2004 05:01:01 15 C 10.9 g/m*3 15 C 0 km/h
1586 27-06-2004 05:13:01 15 C 11.03 g/m*3 15 C 0 km/h
1587 27-06-2004 05:25:01 15 C 11.03 g/m*3 15 C 0 km/h
1588 27-06-2004 05:37:01 14.9 C 11.09 g/m*3 14.9 C 0 km/h
1589 27-06-2004 05:49:01 15 C 11.16 g/m*3 15 C 0 km/h
1590 27-06-2004 06:01:01 15.1 C 11.09 g/m*3 15.1 C 0 km/h
1591 27-06-2004 06:13:01 15.2 C 11.16 g/m*3 15.2 C 0 km/h
1592 27-06-2004 06:25:01 15.4 C 11.3 g/m*3 15.4 C 0 km/h
1593 27-06-2004 06:37:01 15.7 C 11.37 g/m*3 15.7 C 0 km/h
1594 27-06-2004 06:49:01 15.7 C 11.24 g/m*3 15.7 C 0 km/h
1595 27-06-2004 07:01:01 15.8 C 11.31 g/m*3 15.8 C 0 km/h
1596 27-06-2004 07:13:01 16 C 11.31 g/m*3 16 C 0 km/h
1597 27-06-2004 07:25:01 16.3 C 11.52 g/m*3 16.3 C 0 km/h
1598 27-06-2004 07:37:01 16.7 C 11.51 g/m*3 16.7 C 0 km/h
1599 27-06-2004 07:49:01 16.8 C 11.29 g/m*3 16.8 C 0 km/h
1600 27-06-2004 08:01:01 17 C 11.29 g/m*3 17 C 0 km/h
Sensor: Nr:Datum:Temp:Abs-Feuchte:Windchill:Wind:
Aussen-T/F 1601 27-06-2004 08:13:01 17.2 C 11.42 g/m*3 17.2 C 0 km/h
1602 27-06-2004 08:25:01 17.1 C 11.21 g/m*3 17.1 C 0 km/h
1603 27-06-2004 08:37:01 17.1 C 11.5 g/m*3 17.1 C 0 km/h
1604 27-06-2004 08:49:01 17.3 C 11.79 g/m*3 17.3 C 0 km/h
1605 27-06-2004 09:01:02 17.3 C 11.64 g/m*3 17.3 C 0 km/h
1606 27-06-2004 09:13:03 17.1 C 11.35 g/m*3 17.1 C 0 km/h
1607 27-06-2004 09:25:00 16.6 C 11.44 g/m*3 16.6 C 0 km/h
1608 27-06-2004 09:37:51 16.1 C 11.51 g/m*3 16.1 C 0 km/h
1609 27-06-2004 10:20:44 15.4 C 11.69 g/m*3 15.4 C 0 km/h
1610 27-06-2004 10:32:01 16 C 11.99 g/m*3 16 C 0 km/h
1611 27-06-2004 10:44:01 16.9 C 12.66 g/m*3 16.9 C 0 km/h
1612 27-06-2004 10:56:00 17.4 C 12.45 g/m*3 17.4 C 0 km/h
1613 27-06-2004 11:08:02 17.7 C 12.98 g/m*3 17.7 C 0 km/h
1614 27-06-2004 11:20:02 19.2 C 13.52 g/m*3 19.2 C 0 km/h
1615 27-06-2004 11:32:02 20.5 C 13.35 g/m*3 20.5 C 0 km/h
1616 27-06-2004 11:44:02 21.2 C 13.16 g/m*3 21.2 C 0 km/h
1617 27-06-2004 11:56:01 21.6 C 12.9 g/m*3 21.6 C 0 km/h
1618 27-06-2004 12:08:01 21.4 C 12.37 g/m*3 21.4 C 0 km/h
1619 27-06-2004 12:20:01 20.8 C 13.04 g/m*3 20.8 C 0 km/h
1620 27-06-2004 12:32:01 21.5 C 13.01 g/m*3 21.5 C 0 km/h
1621 27-06-2004 12:44:01 22.4 C 12.11 g/m*3 22.4 C 0 km/h
1622 27-06-2004 12:56:01 22.7 C 11.72 g/m*3 22.7 C 0 km/h
1623 27-06-2004 13:08:01 23.2 C 11.02 g/m*3 23.2 C 0 km/h
1624 27-06-2004 13:20:01 25.1 C 11.81 g/m*3 25.1 C 0 km/h
1625 27-06-2004 13:32:01 25.3 C 10.77 g/m*3 25.3 C 0 km/h
Sensor: Nr:Datum:Temp:Abs-Feuchte:Windchill:Wind:
Aussen-T/F 1626 27-06-2004 13:44:01 24.9 C 10.3 g/m*3 24.9 C 0 km/h
1627 27-06-2004 13:56:01 24.7 C 10.41 g/m*3 24.7 C 0 km/h
1628 27-06-2004 14:08:01 25.3 C 11.24 g/m*3 25.3 C 0 km/h
1629 27-06-2004 14:20:01 25.4 C 11.06 g/m*3 25.4 C 0 km/h
1630 27-06-2004 14:32:01 26 C 11.2 g/m*3 26 C 0 km/h
1631 27-06-2004 14:44:01 26.1 C 10.53 g/m*3 26.1 C 0 km/h
1632 27-06-2004 14:56:01 26.7 C 10.38 g/m*3 26.7 C 0 km/h
1633 27-06-2004 15:08:01 27.2 C 10.67 g/m*3 27.2 C 0 km/h
1634 27-06-2004 15:20:01 27.4 C 10.26 g/m*3 27.4 C 0 km/h
1635 27-06-2004 15:32:01 27.7 C 11.23 g/m*3 27.7 C 0 km/h
1636 27-06-2004 15:44:01 28.3 C 10.78 g/m*3 28.3 C 0 km/h
1637 27-06-2004 15:56:01 30.4 C 10.85 g/m*3 30.4 C 0 km/h
1638 27-06-2004 16:08:01 31 C 11.2 g/m*3 31 C 0 km/h
1639 27-06-2004 16:20:01 31.3 C 10.41 g/m*3 31.3 C 0 km/h
1640 27-06-2004 16:32:01 31 C 11.2 g/m*3 31 C 0 km/h
1641 27-06-2004 16:44:01 30.6 C 10.65 g/m*3 30.6 C 0 km/h
1642 27-06-2004 16:56:01 30.7 C 10.08 g/m*3 30.7 C 0 km/h
1643 27-06-2004 17:08:01 30.1 C 10.37 g/m*3 30.1 C 0 km/h
1644 27-06-2004 17:20:01 29.8 C 10.5 g/m*3 29.8 C 0 km/h
1645 27-06-2004 17:32:01 29.6 C 10.68 g/m*3 29.6 C 0 km/h
1646 27-06-2004 17:44:01 29.7 C 10.44 g/m*3 29.7 C 0 km/h
1647 27-06-2004 17:56:02 29.3 C 11.68 g/m*3 29.3 C 0 km/h
1648 27-06-2004 18:08:02 28.7 C 10.46 g/m*3 28.7 C 0 km/h
1649 27-06-2004 18:20:02 28.4 C 9.45 g/m*3 28.4 C 0 km/h
1650 27-06-2004 18:32:01 28.1 C 11.48 g/m*3 28.1 C 0 km/h
Sensor: Nr:Datum:Temp:Abs-Feuchte:Windchill:Wind:
Aussen-T/F 1651 27-06-2004 18:44:01 27.9 C 11.9 g/m*3 27.9 C 0 km/h
1652 27-06-2004 18:56:01 26.9 C 9.73 g/m*3 26.9 C 0 km/h
1653 27-06-2004 19:08:01 26.2 C 9.85 g/m*3 26.2 C 0 km/h
1654 27-06-2004 19:20:02 25.8 C 10.83 g/m*3 25.8 C 0 km/h
1655 27-06-2004 19:32:01 25.4 C 11.06 g/m*3 25.4 C 0 km/h
1656 27-06-2004 19:44:01 25 C 11.05 g/m*3 25 C 0 km/h
1657 27-06-2004 19:56:01 25 C 11.05 g/m*3 25 C 0 km/h
1658 27-06-2004 20:08:01 24.5 C 11.19 g/m*3 24.5 C 0 km/h
1659 27-06-2004 20:20:01 24.1 C 11.6 g/m*3 24.1 C 0 km/h
1660 27-06-2004 20:32:01 24 C 11.75 g/m*3 24 C 0 km/h
1661 27-06-2004 20:44:01 24.1 C 10.94 g/m*3 24.1 C 0 km/h
1662 27-06-2004 20:56:01 23.9 C 11.25 g/m*3 23.9 C 0 km/h
1663 27-06-2004 21:08:01 23.9 C 11.47 g/m*3 23.9 C 0 km/h
1664 27-06-2004 21:20:01 23.7 C 11.55 g/m*3 23.7 C 0 km/h
1665 27-06-2004 21:32:01 23.6 C 11.91 g/m*3 23.6 C 0 km/h
1666 27-06-2004 21:44:01 23.1 C 11.37 g/m*3 23.1 C 0 km/h
1667 27-06-2004 21:56:02 22.9 C 11.65 g/m*3 22.9 C 0 km/h
1668 27-06-2004 22:08:01 22.8 C 11.58 g/m*3 22.8 C 0 km/h
1669 27-06-2004 22:20:01 22.3 C 11.65 g/m*3 22.3 C 0 km/h
1670 27-06-2004 22:32:01 21.8 C 11.7 g/m*3 21.8 C 0 km/h
1671 27-06-2004 22:44:01 21.6 C 11.19 g/m*3 21.6 C 0 km/h
1672 27-06-2004 22:56:01 21.3 C 10.62 g/m*3 21.3 C 0 km/h
1673 27-06-2004 23:08:01 20.8 C 10.68 g/m*3 20.8 C 0 km/h
1674 27-06-2004 23:20:02 20.3 C 10.38 g/m*3 20.3 C 0 km/h
1675 27-06-2004 23:32:02 19.9 C 10.48 g/m*3 19.9 C 0 km/h
Sensor: Nr:Datum:Temp:Abs-Feuchte:Windchill:Wind:
Aussen-T/F 1676 27-06-2004 23:44:02 19.4 C 10.18 g/m*3 19.4 C 0 km/h
1677 27-06-2004 23:56:01 18.9 C 10.04 g/m*3 18.9 C 0 km/h

Legende:
   Min
   Max


Maximal/Minimal-Werte vom 14.06.2004 - 27.06.2004

Sensor Min Max Avg
Temp
(Aussen-T/F)
6.9 °C
20-06-2004  05:30:21
31.3 °C
27-06-2004  16:20:01
16.86 °C
Abs-Feuchte
(Aussen-T/F)
3.46 g/m*3
20-06-2004  14:07:14
13.52 g/m*3
27-06-2004  11:20:02
8.61 g/m*3
Windchill
(Aussen-T/F)
6.9 C
20-06-2004  05:30:21
31.3 C
27-06-2004  16:20:01
16.85 C

Die Daten stammen von einer Davis Vantage Pro 2 Wetter-Station und werden unter Linux mit der Software wview2wettercgi und aufbereitet. Alle Angaben erfolgen ohne Gewähr für ihre Vollständigkeit oder Richtigkeit.
Kontakt: Rainer Krienke krienke@uni-koblenz.de . Meine Webseiten an der Uni Koblenz oder privat.
Version: $Revision: 0.78 $